<?xml version="1.0" encoding="UTF-8" standalone="no" ?>
<gpx xmlns="http://www.topografix.com/GPX/1/1" xmlns:xsi="http://www.w3.org/2001/XMLSchema-instance" xsi:schemaLocation="http://www.topografix.com/GPX/1/1 http://www.topografix.com/GPX/1/1/gpx.xsd" version="1.1" creator="VisuGPX - https://www.visugpx.com">
  <metadata>
    <name>Belley / Grands Chênes1</name>
    <desc><![CDATA[Ain - Bugey.
Boucle au départ de Belley.
Passage à Les Éplantaz, Sur les Bois, Chazey, L'Abbaye (Chazey-Bons), Les Ébuclas, Condon, Gevrin, Grands Chênes, Boissieu, Chailloux, Bois des Cornes, Bognens, Bilignin.]]></desc>
  </metadata>
  <trk>
    <name><![CDATA[9981407-Belley / Grands Chênes1]]></name>
    <trkseg>
      <trkpt lat="45.75804" lon="5.68923">
        <ele>280</ele>
        <time>2019-05-22T20:19:25Z</time>
      </trkpt>
      <trkpt lat="45.75829" lon="5.68872">
        <ele>280</ele>
        <time>2019-05-22T20:19:35Z</time>
      </trkpt>
      <trkpt lat="45.75836" lon="5.68862">
        <ele>280</ele>
        <time>2019-05-22T20:19:37Z</time>
      </trkpt>
      <trkpt lat="45.75743" lon="5.68792">
        <ele>280</ele>
        <time>2019-05-22T20:20:02Z</time>
      </trkpt>
      <trkpt lat="45.75706" lon="5.68768">
        <ele>281</ele>
        <time>2019-05-22T20:20:11Z</time>
      </trkpt>
      <trkpt lat="45.75689" lon="5.68761">
        <ele>282</ele>
        <time>2019-05-22T20:20:16Z</time>
      </trkpt>
      <trkpt lat="45.75656" lon="5.68728">
        <ele>283</ele>
        <time>2019-05-22T20:20:25Z</time>
      </trkpt>
      <trkpt lat="45.75597" lon="5.68662">
        <ele>286</ele>
        <time>2019-05-22T20:20:42Z</time>
      </trkpt>
      <trkpt lat="45.75592" lon="5.6865">
        <ele>287</ele>
        <time>2019-05-22T20:20:45Z</time>
      </trkpt>
      <trkpt lat="45.75558" lon="5.68517">
        <ele>289</ele>
        <time>2019-05-22T20:21:08Z</time>
      </trkpt>
      <trkpt lat="45.75552" lon="5.68474">
        <ele>289</ele>
        <time>2019-05-22T20:21:15Z</time>
      </trkpt>
      <trkpt lat="45.75564" lon="5.68392">
        <ele>288</ele>
        <time>2019-05-22T20:21:29Z</time>
      </trkpt>
      <trkpt lat="45.7557" lon="5.68375">
        <ele>288</ele>
        <time>2019-05-22T20:21:32Z</time>
      </trkpt>
      <trkpt lat="45.7558" lon="5.68374">
        <ele>287</ele>
        <time>2019-05-22T20:21:34Z</time>
      </trkpt>
      <trkpt lat="45.75581" lon="5.68364">
        <ele>287</ele>
        <time>2019-05-22T20:21:36Z</time>
      </trkpt>
      <trkpt lat="45.75575" lon="5.68356">
        <ele>287</ele>
        <time>2019-05-22T20:21:38Z</time>
      </trkpt>
      <trkpt lat="45.75573" lon="5.68347">
        <ele>287</ele>
        <time>2019-05-22T20:21:39Z</time>
      </trkpt>
      <trkpt lat="45.75574" lon="5.68333">
        <ele>287</ele>
        <time>2019-05-22T20:21:41Z</time>
      </trkpt>
      <trkpt lat="45.75602" lon="5.68173">
        <ele>289</ele>
        <time>2019-05-22T20:22:08Z</time>
      </trkpt>
      <trkpt lat="45.75616" lon="5.68118">
        <ele>288</ele>
        <time>2019-05-22T20:22:18Z</time>
      </trkpt>
      <trkpt lat="45.75642" lon="5.68073">
        <ele>287</ele>
        <time>2019-05-22T20:22:27Z</time>
      </trkpt>
      <trkpt lat="45.7567" lon="5.68036">
        <ele>285</ele>
        <time>2019-05-22T20:22:36Z</time>
      </trkpt>
      <trkpt lat="45.75734" lon="5.67907">
        <ele>288</ele>
        <time>2019-05-22T20:23:02Z</time>
      </trkpt>
      <trkpt lat="45.75749" lon="5.67881">
        <ele>289</ele>
        <time>2019-05-22T20:23:08Z</time>
      </trkpt>
      <trkpt lat="45.75767" lon="5.67853">
        <ele>291</ele>
        <time>2019-05-22T20:23:14Z</time>
      </trkpt>
      <trkpt lat="45.75777" lon="5.67844">
        <ele>292</ele>
        <time>2019-05-22T20:23:17Z</time>
      </trkpt>
      <trkpt lat="45.75836" lon="5.67922">
        <ele>289</ele>
        <time>2019-05-22T20:23:35Z</time>
      </trkpt>
      <trkpt lat="45.76087" lon="5.68236">
        <ele>289</ele>
        <time>2019-05-22T20:24:53Z</time>
      </trkpt>
      <trkpt lat="45.76093" lon="5.68249">
        <ele>290</ele>
        <time>2019-05-22T20:24:56Z</time>
      </trkpt>
      <trkpt lat="45.761" lon="5.68245">
        <ele>290</ele>
        <time>2019-05-22T20:24:57Z</time>
      </trkpt>
      <trkpt lat="45.76111" lon="5.68231">
        <ele>291</ele>
        <time>2019-05-22T20:25:01Z</time>
      </trkpt>
      <trkpt lat="45.7613" lon="5.68195">
        <ele>294</ele>
        <time>2019-05-22T20:25:08Z</time>
      </trkpt>
      <trkpt lat="45.7616" lon="5.68147">
        <ele>300</ele>
        <time>2019-05-22T20:25:19Z</time>
      </trkpt>
      <trkpt lat="45.76215" lon="5.68217">
        <ele>302</ele>
        <time>2019-05-22T20:25:36Z</time>
      </trkpt>
      <trkpt lat="45.76271" lon="5.68272">
        <ele>304</ele>
        <time>2019-05-22T20:25:52Z</time>
      </trkpt>
      <trkpt lat="45.76279" lon="5.68277">
        <ele>305</ele>
        <time>2019-05-22T20:25:54Z</time>
      </trkpt>
      <trkpt lat="45.76292" lon="5.68276">
        <ele>306</ele>
        <time>2019-05-22T20:25:57Z</time>
      </trkpt>
      <trkpt lat="45.76307" lon="5.68286">
        <ele>307</ele>
        <time>2019-05-22T20:26:01Z</time>
      </trkpt>
      <trkpt lat="45.76358" lon="5.68356">
        <ele>307</ele>
        <time>2019-05-22T20:26:17Z</time>
      </trkpt>
      <trkpt lat="45.76362" lon="5.68369">
        <ele>307</ele>
        <time>2019-05-22T20:26:19Z</time>
      </trkpt>
      <trkpt lat="45.76389" lon="5.68362">
        <ele>310</ele>
        <time>2019-05-22T20:26:26Z</time>
      </trkpt>
      <trkpt lat="45.76518" lon="5.68346">
        <ele>327</ele>
        <time>2019-05-22T20:26:56Z</time>
      </trkpt>
      <trkpt lat="45.76537" lon="5.68358">
        <ele>326</ele>
        <time>2019-05-22T20:27:01Z</time>
      </trkpt>
      <trkpt lat="45.76548" lon="5.68362">
        <ele>327</ele>
        <time>2019-05-22T20:27:04Z</time>
      </trkpt>
      <trkpt lat="45.76582" lon="5.68365">
        <ele>328</ele>
        <time>2019-05-22T20:27:12Z</time>
      </trkpt>
      <trkpt lat="45.7659" lon="5.68375">
        <ele>328</ele>
        <time>2019-05-22T20:27:14Z</time>
      </trkpt>
      <trkpt lat="45.76594" lon="5.68364">
        <ele>328</ele>
        <time>2019-05-22T20:27:16Z</time>
      </trkpt>
      <trkpt lat="45.76605" lon="5.68354">
        <ele>328</ele>
        <time>2019-05-22T20:27:19Z</time>
      </trkpt>
      <trkpt lat="45.76623" lon="5.68347">
        <ele>328</ele>
        <time>2019-05-22T20:27:23Z</time>
      </trkpt>
      <trkpt lat="45.76632" lon="5.68348">
        <ele>328</ele>
        <time>2019-05-22T20:27:26Z</time>
      </trkpt>
      <trkpt lat="45.76726" lon="5.6839">
        <ele>328</ele>
        <time>2019-05-22T20:27:49Z</time>
      </trkpt>
      <trkpt lat="45.76743" lon="5.68395">
        <ele>327</ele>
        <time>2019-05-22T20:27:53Z</time>
      </trkpt>
      <trkpt lat="45.76755" lon="5.68395">
        <ele>327</ele>
        <time>2019-05-22T20:27:55Z</time>
      </trkpt>
      <trkpt lat="45.76782" lon="5.68414">
        <ele>326</ele>
        <time>2019-05-22T20:28:02Z</time>
      </trkpt>
      <trkpt lat="45.76842" lon="5.68444">
        <ele>323</ele>
        <time>2019-05-22T20:28:17Z</time>
      </trkpt>
      <trkpt lat="45.76877" lon="5.68458">
        <ele>322</ele>
        <time>2019-05-22T20:28:26Z</time>
      </trkpt>
      <trkpt lat="45.76932" lon="5.68473">
        <ele>320</ele>
        <time>2019-05-22T20:28:39Z</time>
      </trkpt>
      <trkpt lat="45.76949" lon="5.6848">
        <ele>319</ele>
        <time>2019-05-22T20:28:43Z</time>
      </trkpt>
      <trkpt lat="45.76976" lon="5.68498">
        <ele>317</ele>
        <time>2019-05-22T20:28:50Z</time>
      </trkpt>
      <trkpt lat="45.77105" lon="5.68545">
        <ele>306</ele>
        <time>2019-05-22T20:29:21Z</time>
      </trkpt>
      <trkpt lat="45.77129" lon="5.68566">
        <ele>304</ele>
        <time>2019-05-22T20:29:28Z</time>
      </trkpt>
      <trkpt lat="45.77168" lon="5.6859">
        <ele>302</ele>
        <time>2019-05-22T20:29:37Z</time>
      </trkpt>
      <trkpt lat="45.77212" lon="5.68597">
        <ele>300</ele>
        <time>2019-05-22T20:29:48Z</time>
      </trkpt>
      <trkpt lat="45.7724" lon="5.68598">
        <ele>300</ele>
        <time>2019-05-22T20:29:54Z</time>
      </trkpt>
      <trkpt lat="45.774" lon="5.6859">
        <ele>290</ele>
        <time>2019-05-22T20:30:32Z</time>
      </trkpt>
      <trkpt lat="45.77437" lon="5.68586">
        <ele>285</ele>
        <time>2019-05-22T20:30:40Z</time>
      </trkpt>
      <trkpt lat="45.77453" lon="5.68582">
        <ele>283</ele>
        <time>2019-05-22T20:30:44Z</time>
      </trkpt>
      <trkpt lat="45.77479" lon="5.68564">
        <ele>280</ele>
        <time>2019-05-22T20:30:51Z</time>
      </trkpt>
      <trkpt lat="45.7751" lon="5.68531">
        <ele>276</ele>
        <time>2019-05-22T20:31:00Z</time>
      </trkpt>
      <trkpt lat="45.77536" lon="5.68496">
        <ele>271</ele>
        <time>2019-05-22T20:31:08Z</time>
      </trkpt>
      <trkpt lat="45.77546" lon="5.68489">
        <ele>267</ele>
        <time>2019-05-22T20:31:11Z</time>
      </trkpt>
      <trkpt lat="45.77557" lon="5.68486">
        <ele>264</ele>
        <time>2019-05-22T20:31:14Z</time>
      </trkpt>
      <trkpt lat="45.77573" lon="5.68452">
        <ele>259</ele>
        <time>2019-05-22T20:31:20Z</time>
      </trkpt>
      <trkpt lat="45.7758" lon="5.6843">
        <ele>258</ele>
        <time>2019-05-22T20:31:24Z</time>
      </trkpt>
      <trkpt lat="45.77582" lon="5.68374">
        <ele>259</ele>
        <time>2019-05-22T20:31:33Z</time>
      </trkpt>
      <trkpt lat="45.77585" lon="5.68352">
        <ele>259</ele>
        <time>2019-05-22T20:31:37Z</time>
      </trkpt>
      <trkpt lat="45.77619" lon="5.68207">
        <ele>261</ele>
        <time>2019-05-22T20:32:02Z</time>
      </trkpt>
      <trkpt lat="45.77639" lon="5.68146">
        <ele>261</ele>
        <time>2019-05-22T20:32:13Z</time>
      </trkpt>
      <trkpt lat="45.77676" lon="5.6808">
        <ele>258</ele>
        <time>2019-05-22T20:32:27Z</time>
      </trkpt>
      <trkpt lat="45.77713" lon="5.68029">
        <ele>258</ele>
        <time>2019-05-22T20:32:39Z</time>
      </trkpt>
      <trkpt lat="45.77771" lon="5.67962">
        <ele>256</ele>
        <time>2019-05-22T20:32:56Z</time>
      </trkpt>
      <trkpt lat="45.77831" lon="5.68025">
        <ele>253</ele>
        <time>2019-05-22T20:33:13Z</time>
      </trkpt>
      <trkpt lat="45.77858" lon="5.68047">
        <ele>251</ele>
        <time>2019-05-22T20:33:21Z</time>
      </trkpt>
      <trkpt lat="45.77922" lon="5.68072">
        <ele>245</ele>
        <time>2019-05-22T20:33:36Z</time>
      </trkpt>
      <trkpt lat="45.77974" lon="5.68125">
        <ele>243</ele>
        <time>2019-05-22T20:33:51Z</time>
      </trkpt>
      <trkpt lat="45.77996" lon="5.68143">
        <ele>242</ele>
        <time>2019-05-22T20:33:57Z</time>
      </trkpt>
      <trkpt lat="45.78035" lon="5.68181">
        <ele>242</ele>
        <time>2019-05-22T20:34:08Z</time>
      </trkpt>
      <trkpt lat="45.78179" lon="5.68305">
        <ele>234</ele>
        <time>2019-05-22T20:34:47Z</time>
      </trkpt>
      <trkpt lat="45.78193" lon="5.6832">
        <ele>233</ele>
        <time>2019-05-22T20:34:51Z</time>
      </trkpt>
      <trkpt lat="45.78238" lon="5.68298">
        <ele>234</ele>
        <time>2019-05-22T20:35:02Z</time>
      </trkpt>
      <trkpt lat="45.78294" lon="5.68261">
        <ele>234</ele>
        <time>2019-05-22T20:35:17Z</time>
      </trkpt>
      <trkpt lat="45.78323" lon="5.68249">
        <ele>233</ele>
        <time>2019-05-22T20:35:24Z</time>
      </trkpt>
      <trkpt lat="45.78415" lon="5.68232">
        <ele>235</ele>
        <time>2019-05-22T20:35:45Z</time>
      </trkpt>
      <trkpt lat="45.78514" lon="5.6821">
        <ele>241</ele>
        <time>2019-05-22T20:36:09Z</time>
      </trkpt>
      <trkpt lat="45.78603" lon="5.68202">
        <ele>239</ele>
        <time>2019-05-22T20:36:30Z</time>
      </trkpt>
      <trkpt lat="45.78609" lon="5.68187">
        <ele>241</ele>
        <time>2019-05-22T20:36:32Z</time>
      </trkpt>
      <trkpt lat="45.78622" lon="5.68169">
        <ele>241</ele>
        <time>2019-05-22T20:36:37Z</time>
      </trkpt>
      <trkpt lat="45.78643" lon="5.68128">
        <ele>243</ele>
        <time>2019-05-22T20:36:45Z</time>
      </trkpt>
      <trkpt lat="45.78658" lon="5.68093">
        <ele>243</ele>
        <time>2019-05-22T20:36:52Z</time>
      </trkpt>
      <trkpt lat="45.78667" lon="5.68063">
        <ele>243</ele>
        <time>2019-05-22T20:36:57Z</time>
      </trkpt>
      <trkpt lat="45.78676" lon="5.68015">
        <ele>246</ele>
        <time>2019-05-22T20:37:05Z</time>
      </trkpt>
      <trkpt lat="45.78678" lon="5.67888">
        <ele>242</ele>
        <time>2019-05-22T20:37:26Z</time>
      </trkpt>
      <trkpt lat="45.78674" lon="5.67844">
        <ele>239</ele>
        <time>2019-05-22T20:37:33Z</time>
      </trkpt>
      <trkpt lat="45.78659" lon="5.678">
        <ele>240</ele>
        <time>2019-05-22T20:37:41Z</time>
      </trkpt>
      <trkpt lat="45.78651" lon="5.67785">
        <ele>241</ele>
        <time>2019-05-22T20:37:44Z</time>
      </trkpt>
      <trkpt lat="45.78662" lon="5.67783">
        <ele>239</ele>
        <time>2019-05-22T20:37:47Z</time>
      </trkpt>
      <trkpt lat="45.78684" lon="5.67773">
        <ele>237</ele>
        <time>2019-05-22T20:37:52Z</time>
      </trkpt>
      <trkpt lat="45.78702" lon="5.67754">
        <ele>237</ele>
        <time>2019-05-22T20:37:57Z</time>
      </trkpt>
      <trkpt lat="45.78733" lon="5.67747">
        <ele>237</ele>
        <time>2019-05-22T20:38:05Z</time>
      </trkpt>
      <trkpt lat="45.78751" lon="5.67751">
        <ele>237</ele>
        <time>2019-05-22T20:38:09Z</time>
      </trkpt>
      <trkpt lat="45.78772" lon="5.67785">
        <ele>236</ele>
        <time>2019-05-22T20:38:16Z</time>
      </trkpt>
      <trkpt lat="45.78772" lon="5.67805">
        <ele>235</ele>
        <time>2019-05-22T20:38:19Z</time>
      </trkpt>
      <trkpt lat="45.78781" lon="5.6783">
        <ele>234</ele>
        <time>2019-05-22T20:38:24Z</time>
      </trkpt>
      <trkpt lat="45.78797" lon="5.67849">
        <ele>233</ele>
        <time>2019-05-22T20:38:29Z</time>
      </trkpt>
      <trkpt lat="45.78817" lon="5.6786">
        <ele>232</ele>
        <time>2019-05-22T20:38:34Z</time>
      </trkpt>
      <trkpt lat="45.78828" lon="5.67853">
        <ele>232</ele>
        <time>2019-05-22T20:38:37Z</time>
      </trkpt>
      <trkpt lat="45.78843" lon="5.67818">
        <ele>234</ele>
        <time>2019-05-22T20:38:43Z</time>
      </trkpt>
      <trkpt lat="45.78855" lon="5.67803">
        <ele>234</ele>
        <time>2019-05-22T20:38:47Z</time>
      </trkpt>
      <trkpt lat="45.78865" lon="5.67799">
        <ele>234</ele>
        <time>2019-05-22T20:38:50Z</time>
      </trkpt>
      <trkpt lat="45.78877" lon="5.67803">
        <ele>234</ele>
        <time>2019-05-22T20:38:52Z</time>
      </trkpt>
      <trkpt lat="45.78894" lon="5.67824">
        <ele>233</ele>
        <time>2019-05-22T20:38:58Z</time>
      </trkpt>
      <trkpt lat="45.78914" lon="5.67839">
        <ele>232</ele>
        <time>2019-05-22T20:39:03Z</time>
      </trkpt>
      <trkpt lat="45.78945" lon="5.67848">
        <ele>232</ele>
        <time>2019-05-22T20:39:10Z</time>
      </trkpt>
      <trkpt lat="45.78966" lon="5.67858">
        <ele>232</ele>
        <time>2019-05-22T20:39:16Z</time>
      </trkpt>
      <trkpt lat="45.79005" lon="5.67907">
        <ele>231</ele>
        <time>2019-05-22T20:39:28Z</time>
      </trkpt>
      <trkpt lat="45.79018" lon="5.67911">
        <ele>231</ele>
        <time>2019-05-22T20:39:31Z</time>
      </trkpt>
      <trkpt lat="45.79034" lon="5.67911">
        <ele>231</ele>
        <time>2019-05-22T20:39:34Z</time>
      </trkpt>
      <trkpt lat="45.79058" lon="5.67895">
        <ele>230</ele>
        <time>2019-05-22T20:39:41Z</time>
      </trkpt>
      <trkpt lat="45.79083" lon="5.67872">
        <ele>230</ele>
        <time>2019-05-22T20:39:48Z</time>
      </trkpt>
      <trkpt lat="45.79102" lon="5.67865">
        <ele>230</ele>
        <time>2019-05-22T20:39:52Z</time>
      </trkpt>
      <trkpt lat="45.79157" lon="5.67856">
        <ele>231</ele>
        <time>2019-05-22T20:40:05Z</time>
      </trkpt>
      <trkpt lat="45.79171" lon="5.67856">
        <ele>231</ele>
        <time>2019-05-22T20:40:08Z</time>
      </trkpt>
      <trkpt lat="45.7918" lon="5.67862">
        <ele>231</ele>
        <time>2019-05-22T20:40:11Z</time>
      </trkpt>
      <trkpt lat="45.7922" lon="5.67869">
        <ele>233</ele>
        <time>2019-05-22T20:40:20Z</time>
      </trkpt>
      <trkpt lat="45.79233" lon="5.67876">
        <ele>233</ele>
        <time>2019-05-22T20:40:23Z</time>
      </trkpt>
      <trkpt lat="45.79244" lon="5.67888">
        <ele>232</ele>
        <time>2019-05-22T20:40:27Z</time>
      </trkpt>
      <trkpt lat="45.7926" lon="5.67918">
        <ele>230</ele>
        <time>2019-05-22T20:40:33Z</time>
      </trkpt>
      <trkpt lat="45.79278" lon="5.67934">
        <ele>230</ele>
        <time>2019-05-22T20:40:38Z</time>
      </trkpt>
      <trkpt lat="45.7932" lon="5.67984">
        <ele>230</ele>
        <time>2019-05-22T20:40:50Z</time>
      </trkpt>
      <trkpt lat="45.79332" lon="5.67992">
        <ele>230</ele>
        <time>2019-05-22T20:40:53Z</time>
      </trkpt>
      <trkpt lat="45.79344" lon="5.67994">
        <ele>230</ele>
        <time>2019-05-22T20:40:56Z</time>
      </trkpt>
      <trkpt lat="45.79369" lon="5.67993">
        <ele>230</ele>
        <time>2019-05-22T20:41:02Z</time>
      </trkpt>
      <trkpt lat="45.79395" lon="5.67983">
        <ele>230</ele>
        <time>2019-05-22T20:41:08Z</time>
      </trkpt>
      <trkpt lat="45.79408" lon="5.67982">
        <ele>230</ele>
        <time>2019-05-22T20:41:11Z</time>
      </trkpt>
      <trkpt lat="45.79448" lon="5.67992">
        <ele>230</ele>
        <time>2019-05-22T20:41:21Z</time>
      </trkpt>
      <trkpt lat="45.79465" lon="5.67992">
        <ele>230</ele>
        <time>2019-05-22T20:41:25Z</time>
      </trkpt>
      <trkpt lat="45.79491" lon="5.67987">
        <ele>230</ele>
        <time>2019-05-22T20:41:31Z</time>
      </trkpt>
      <trkpt lat="45.79546" lon="5.67971">
        <ele>231</ele>
        <time>2019-05-22T20:41:44Z</time>
      </trkpt>
      <trkpt lat="45.79565" lon="5.67957">
        <ele>231</ele>
        <time>2019-05-22T20:41:49Z</time>
      </trkpt>
      <trkpt lat="45.79579" lon="5.6795">
        <ele>232</ele>
        <time>2019-05-22T20:41:53Z</time>
      </trkpt>
      <trkpt lat="45.79596" lon="5.67948">
        <ele>232</ele>
        <time>2019-05-22T20:41:57Z</time>
      </trkpt>
      <trkpt lat="45.79611" lon="5.67962">
        <ele>231</ele>
        <time>2019-05-22T20:42:01Z</time>
      </trkpt>
      <trkpt lat="45.79629" lon="5.6799">
        <ele>231</ele>
        <time>2019-05-22T20:42:07Z</time>
      </trkpt>
      <trkpt lat="45.79639" lon="5.68">
        <ele>231</ele>
        <time>2019-05-22T20:42:10Z</time>
      </trkpt>
      <trkpt lat="45.79627" lon="5.68097">
        <ele>231</ele>
        <time>2019-05-22T20:42:26Z</time>
      </trkpt>
      <trkpt lat="45.79627" lon="5.68239">
        <ele>234</ele>
        <time>2019-05-22T20:42:49Z</time>
      </trkpt>
      <trkpt lat="45.79798" lon="5.68225">
        <ele>231</ele>
        <time>2019-05-22T20:43:29Z</time>
      </trkpt>
      <trkpt lat="45.79843" lon="5.68224">
        <ele>231</ele>
        <time>2019-05-22T20:43:39Z</time>
      </trkpt>
      <trkpt lat="45.79848" lon="5.68105">
        <ele>231</ele>
        <time>2019-05-22T20:43:59Z</time>
      </trkpt>
      <trkpt lat="45.79856" lon="5.68066">
        <ele>231</ele>
        <time>2019-05-22T20:44:06Z</time>
      </trkpt>
      <trkpt lat="45.79867" lon="5.68029">
        <ele>232</ele>
        <time>2019-05-22T20:44:12Z</time>
      </trkpt>
      <trkpt lat="45.79881" lon="5.67997">
        <ele>233</ele>
        <time>2019-05-22T20:44:18Z</time>
      </trkpt>
      <trkpt lat="45.79908" lon="5.67952">
        <ele>237</ele>
        <time>2019-05-22T20:44:28Z</time>
      </trkpt>
      <trkpt lat="45.79904" lon="5.6793">
        <ele>238</ele>
        <time>2019-05-22T20:44:32Z</time>
      </trkpt>
      <trkpt lat="45.79893" lon="5.67908">
        <ele>240</ele>
        <time>2019-05-22T20:44:36Z</time>
      </trkpt>
      <trkpt lat="45.79857" lon="5.67862">
        <ele>247</ele>
        <time>2019-05-22T20:44:47Z</time>
      </trkpt>
      <trkpt lat="45.79846" lon="5.67844">
        <ele>249</ele>
        <time>2019-05-22T20:44:51Z</time>
      </trkpt>
      <trkpt lat="45.79847" lon="5.67838">
        <ele>250</ele>
        <time>2019-05-22T20:44:52Z</time>
      </trkpt>
      <trkpt lat="45.79876" lon="5.67837">
        <ele>251</ele>
        <time>2019-05-22T20:44:59Z</time>
      </trkpt>
      <trkpt lat="45.79948" lon="5.67856">
        <ele>252</ele>
        <time>2019-05-22T20:45:16Z</time>
      </trkpt>
      <trkpt lat="45.7997" lon="5.67873">
        <ele>250</ele>
        <time>2019-05-22T20:45:22Z</time>
      </trkpt>
      <trkpt lat="45.8002" lon="5.67899">
        <ele>247</ele>
        <time>2019-05-22T20:45:34Z</time>
      </trkpt>
      <trkpt lat="45.80038" lon="5.67899">
        <ele>247</ele>
        <time>2019-05-22T20:45:38Z</time>
      </trkpt>
      <trkpt lat="45.80066" lon="5.67895">
        <ele>249</ele>
        <time>2019-05-22T20:45:45Z</time>
      </trkpt>
      <trkpt lat="45.80097" lon="5.67897">
        <ele>249</ele>
        <time>2019-05-22T20:45:52Z</time>
      </trkpt>
      <trkpt lat="45.80113" lon="5.67906">
        <ele>248</ele>
        <time>2019-05-22T20:45:56Z</time>
      </trkpt>
      <trkpt lat="45.80125" lon="5.67906">
        <ele>248</ele>
        <time>2019-05-22T20:45:59Z</time>
      </trkpt>
      <trkpt lat="45.80135" lon="5.679">
        <ele>249</ele>
        <time>2019-05-22T20:46:02Z</time>
      </trkpt>
      <trkpt lat="45.80201" lon="5.6782">
        <ele>255</ele>
        <time>2019-05-22T20:46:22Z</time>
      </trkpt>
      <trkpt lat="45.80249" lon="5.67772">
        <ele>256</ele>
        <time>2019-05-22T20:46:35Z</time>
      </trkpt>
      <trkpt lat="45.80242" lon="5.6775">
        <ele>257</ele>
        <time>2019-05-22T20:46:39Z</time>
      </trkpt>
      <trkpt lat="45.80212" lon="5.67709">
        <ele>262</ele>
        <time>2019-05-22T20:46:49Z</time>
      </trkpt>
      <trkpt lat="45.80206" lon="5.67706">
        <ele>263</ele>
        <time>2019-05-22T20:46:51Z</time>
      </trkpt>
      <trkpt lat="45.80173" lon="5.67713">
        <ele>264</ele>
        <time>2019-05-22T20:46:58Z</time>
      </trkpt>
      <trkpt lat="45.80168" lon="5.67708">
        <ele>264</ele>
        <time>2019-05-22T20:47:00Z</time>
      </trkpt>
      <trkpt lat="45.80164" lon="5.67698">
        <ele>266</ele>
        <time>2019-05-22T20:47:02Z</time>
      </trkpt>
      <trkpt lat="45.80164" lon="5.67675">
        <ele>267</ele>
        <time>2019-05-22T20:47:05Z</time>
      </trkpt>
      <trkpt lat="45.80155" lon="5.67665">
        <ele>268</ele>
        <time>2019-05-22T20:47:08Z</time>
      </trkpt>
      <trkpt lat="45.80135" lon="5.67608">
        <ele>271</ele>
        <time>2019-05-22T20:47:18Z</time>
      </trkpt>
      <trkpt lat="45.80118" lon="5.67578">
        <ele>273</ele>
        <time>2019-05-22T20:47:25Z</time>
      </trkpt>
      <trkpt lat="45.80099" lon="5.67558">
        <ele>274</ele>
        <time>2019-05-22T20:47:30Z</time>
      </trkpt>
      <trkpt lat="45.8009" lon="5.67536">
        <ele>274</ele>
        <time>2019-05-22T20:47:34Z</time>
      </trkpt>
      <trkpt lat="45.80074" lon="5.67536">
        <ele>274</ele>
        <time>2019-05-22T20:47:38Z</time>
      </trkpt>
      <trkpt lat="45.80059" lon="5.67529">
        <ele>273</ele>
        <time>2019-05-22T20:47:42Z</time>
      </trkpt>
      <trkpt lat="45.80052" lon="5.67513">
        <ele>274</ele>
        <time>2019-05-22T20:47:45Z</time>
      </trkpt>
      <trkpt lat="45.80042" lon="5.67458">
        <ele>272</ele>
        <time>2019-05-22T20:47:54Z</time>
      </trkpt>
      <trkpt lat="45.80044" lon="5.67442">
        <ele>271</ele>
        <time>2019-05-22T20:47:57Z</time>
      </trkpt>
      <trkpt lat="45.80053" lon="5.67417">
        <ele>271</ele>
        <time>2019-05-22T20:48:01Z</time>
      </trkpt>
      <trkpt lat="45.80053" lon="5.67405">
        <ele>271</ele>
        <time>2019-05-22T20:48:03Z</time>
      </trkpt>
      <trkpt lat="45.80041" lon="5.67363">
        <ele>270</ele>
        <time>2019-05-22T20:48:11Z</time>
      </trkpt>
      <trkpt lat="45.80033" lon="5.67352">
        <ele>269</ele>
        <time>2019-05-22T20:48:13Z</time>
      </trkpt>
      <trkpt lat="45.80006" lon="5.67327">
        <ele>266</ele>
        <time>2019-05-22T20:48:21Z</time>
      </trkpt>
      <trkpt lat="45.79994" lon="5.67325">
        <ele>266</ele>
        <time>2019-05-22T20:48:24Z</time>
      </trkpt>
      <trkpt lat="45.79974" lon="5.67333">
        <ele>264</ele>
        <time>2019-05-22T20:48:29Z</time>
      </trkpt>
      <trkpt lat="45.79967" lon="5.67326">
        <ele>264</ele>
        <time>2019-05-22T20:48:30Z</time>
      </trkpt>
      <trkpt lat="45.79967" lon="5.67309">
        <ele>265</ele>
        <time>2019-05-22T20:48:33Z</time>
      </trkpt>
      <trkpt lat="45.79977" lon="5.6731">
        <ele>265</ele>
        <time>2019-05-22T20:48:36Z</time>
      </trkpt>
      <trkpt lat="45.80003" lon="5.67297">
        <ele>266</ele>
        <time>2019-05-22T20:48:42Z</time>
      </trkpt>
      <trkpt lat="45.80013" lon="5.67287">
        <ele>267</ele>
        <time>2019-05-22T20:48:45Z</time>
      </trkpt>
      <trkpt lat="45.80053" lon="5.67294">
        <ele>270</ele>
        <time>2019-05-22T20:48:54Z</time>
      </trkpt>
      <trkpt lat="45.80062" lon="5.67287">
        <ele>270</ele>
        <time>2019-05-22T20:48:57Z</time>
      </trkpt>
      <trkpt lat="45.80065" lon="5.67258">
        <ele>269</ele>
        <time>2019-05-22T20:49:01Z</time>
      </trkpt>
      <trkpt lat="45.80069" lon="5.67248">
        <ele>269</ele>
        <time>2019-05-22T20:49:03Z</time>
      </trkpt>
      <trkpt lat="45.80089" lon="5.67228">
        <ele>270</ele>
        <time>2019-05-22T20:49:09Z</time>
      </trkpt>
      <trkpt lat="45.80093" lon="5.67217">
        <ele>270</ele>
        <time>2019-05-22T20:49:11Z</time>
      </trkpt>
      <trkpt lat="45.80094" lon="5.67197">
        <ele>270</ele>
        <time>2019-05-22T20:49:14Z</time>
      </trkpt>
      <trkpt lat="45.80093" lon="5.67183">
        <ele>270</ele>
        <time>2019-05-22T20:49:17Z</time>
      </trkpt>
      <trkpt lat="45.80069" lon="5.67169">
        <ele>270</ele>
        <time>2019-05-22T20:49:23Z</time>
      </trkpt>
      <trkpt lat="45.80062" lon="5.67161">
        <ele>270</ele>
        <time>2019-05-22T20:49:25Z</time>
      </trkpt>
      <trkpt lat="45.80077" lon="5.67129">
        <ele>271</ele>
        <time>2019-05-22T20:49:31Z</time>
      </trkpt>
      <trkpt lat="45.80088" lon="5.67126">
        <ele>271</ele>
        <time>2019-05-22T20:49:34Z</time>
      </trkpt>
      <trkpt lat="45.80106" lon="5.67094">
        <ele>271</ele>
        <time>2019-05-22T20:49:40Z</time>
      </trkpt>
      <trkpt lat="45.80093" lon="5.67072">
        <ele>272</ele>
        <time>2019-05-22T20:49:45Z</time>
      </trkpt>
      <trkpt lat="45.80086" lon="5.67054">
        <ele>272</ele>
        <time>2019-05-22T20:49:48Z</time>
      </trkpt>
      <trkpt lat="45.8002" lon="5.66943">
        <ele>275</ele>
        <time>2019-05-22T20:50:12Z</time>
      </trkpt>
      <trkpt lat="45.80012" lon="5.66923">
        <ele>274</ele>
        <time>2019-05-22T20:50:16Z</time>
      </trkpt>
      <trkpt lat="45.79995" lon="5.669">
        <ele>271</ele>
        <time>2019-05-22T20:50:21Z</time>
      </trkpt>
      <trkpt lat="45.7997" lon="5.66876">
        <ele>270</ele>
        <time>2019-05-22T20:50:28Z</time>
      </trkpt>
      <trkpt lat="45.79963" lon="5.66861">
        <ele>268</ele>
        <time>2019-05-22T20:50:31Z</time>
      </trkpt>
      <trkpt lat="45.79963" lon="5.66846">
        <ele>266</ele>
        <time>2019-05-22T20:50:34Z</time>
      </trkpt>
      <trkpt lat="45.79971" lon="5.66819">
        <ele>263</ele>
        <time>2019-05-22T20:50:39Z</time>
      </trkpt>
      <trkpt lat="45.7997" lon="5.66799">
        <ele>261</ele>
        <time>2019-05-22T20:50:42Z</time>
      </trkpt>
      <trkpt lat="45.79947" lon="5.66745">
        <ele>257</ele>
        <time>2019-05-22T20:50:52Z</time>
      </trkpt>
      <trkpt lat="45.79947" lon="5.66734">
        <ele>257</ele>
        <time>2019-05-22T20:50:54Z</time>
      </trkpt>
      <trkpt lat="45.79963" lon="5.66685">
        <ele>255</ele>
        <time>2019-05-22T20:51:03Z</time>
      </trkpt>
      <trkpt lat="45.79966" lon="5.66663">
        <ele>255</ele>
        <time>2019-05-22T20:51:06Z</time>
      </trkpt>
      <trkpt lat="45.79967" lon="5.66646">
        <ele>259</ele>
        <time>2019-05-22T20:51:09Z</time>
      </trkpt>
      <trkpt lat="45.7996" lon="5.66621">
        <ele>265</ele>
        <time>2019-05-22T20:51:14Z</time>
      </trkpt>
      <trkpt lat="45.79952" lon="5.66613">
        <ele>266</ele>
        <time>2019-05-22T20:51:16Z</time>
      </trkpt>
      <trkpt lat="45.79943" lon="5.66609">
        <ele>267</ele>
        <time>2019-05-22T20:51:18Z</time>
      </trkpt>
      <trkpt lat="45.79905" lon="5.66608">
        <ele>268</ele>
        <time>2019-05-22T20:51:27Z</time>
      </trkpt>
      <trkpt lat="45.79884" lon="5.66605">
        <ele>267</ele>
        <time>2019-05-22T20:51:32Z</time>
      </trkpt>
      <trkpt lat="45.79867" lon="5.66599">
        <ele>267</ele>
        <time>2019-05-22T20:51:36Z</time>
      </trkpt>
      <trkpt lat="45.79817" lon="5.66558">
        <ele>270</ele>
        <time>2019-05-22T20:51:49Z</time>
      </trkpt>
      <trkpt lat="45.79802" lon="5.66543">
        <ele>271</ele>
        <time>2019-05-22T20:51:54Z</time>
      </trkpt>
      <trkpt lat="45.79768" lon="5.66498">
        <ele>274</ele>
        <time>2019-05-22T20:52:04Z</time>
      </trkpt>
      <trkpt lat="45.79756" lon="5.66486">
        <ele>275</ele>
        <time>2019-05-22T20:52:08Z</time>
      </trkpt>
      <trkpt lat="45.79653" lon="5.66404">
        <ele>282</ele>
        <time>2019-05-22T20:52:35Z</time>
      </trkpt>
      <trkpt lat="45.79648" lon="5.66375">
        <ele>285</ele>
        <time>2019-05-22T20:52:40Z</time>
      </trkpt>
      <trkpt lat="45.79613" lon="5.66319">
        <ele>288</ele>
        <time>2019-05-22T20:52:52Z</time>
      </trkpt>
      <trkpt lat="45.79578" lon="5.66255">
        <ele>293</ele>
        <time>2019-05-22T20:53:06Z</time>
      </trkpt>
      <trkpt lat="45.79555" lon="5.66235">
        <ele>295</ele>
        <time>2019-05-22T20:53:12Z</time>
      </trkpt>
      <trkpt lat="45.79481" lon="5.66197">
        <ele>295</ele>
        <time>2019-05-22T20:53:30Z</time>
      </trkpt>
      <trkpt lat="45.79453" lon="5.66171">
        <ele>296</ele>
        <time>2019-05-22T20:53:38Z</time>
      </trkpt>
      <trkpt lat="45.79446" lon="5.66152">
        <ele>297</ele>
        <time>2019-05-22T20:53:42Z</time>
      </trkpt>
      <trkpt lat="45.79432" lon="5.66083">
        <ele>300</ele>
        <time>2019-05-22T20:53:53Z</time>
      </trkpt>
      <trkpt lat="45.79429" lon="5.66021">
        <ele>303</ele>
        <time>2019-05-22T20:54:03Z</time>
      </trkpt>
      <trkpt lat="45.79425" lon="5.66">
        <ele>304</ele>
        <time>2019-05-22T20:54:07Z</time>
      </trkpt>
      <trkpt lat="45.79409" lon="5.65962">
        <ele>303</ele>
        <time>2019-05-22T20:54:14Z</time>
      </trkpt>
      <trkpt lat="45.79404" lon="5.65921">
        <ele>304</ele>
        <time>2019-05-22T20:54:21Z</time>
      </trkpt>
      <trkpt lat="45.79412" lon="5.6588">
        <ele>306</ele>
        <time>2019-05-22T20:54:28Z</time>
      </trkpt>
      <trkpt lat="45.79422" lon="5.65858">
        <ele>307</ele>
        <time>2019-05-22T20:54:32Z</time>
      </trkpt>
      <trkpt lat="45.79428" lon="5.65833">
        <ele>308</ele>
        <time>2019-05-22T20:54:36Z</time>
      </trkpt>
      <trkpt lat="45.79451" lon="5.65725">
        <ele>312</ele>
        <time>2019-05-22T20:54:55Z</time>
      </trkpt>
      <trkpt lat="45.79462" lon="5.65703">
        <ele>313</ele>
        <time>2019-05-22T20:54:59Z</time>
      </trkpt>
      <trkpt lat="45.79496" lon="5.65653">
        <ele>316</ele>
        <time>2019-05-22T20:55:11Z</time>
      </trkpt>
      <trkpt lat="45.79492" lon="5.65628">
        <ele>317</ele>
        <time>2019-05-22T20:55:15Z</time>
      </trkpt>
      <trkpt lat="45.79461" lon="5.65531">
        <ele>318</ele>
        <time>2019-05-22T20:55:32Z</time>
      </trkpt>
      <trkpt lat="45.79446" lon="5.65499">
        <ele>319</ele>
        <time>2019-05-22T20:55:38Z</time>
      </trkpt>
      <trkpt lat="45.79474" lon="5.65467">
        <ele>318</ele>
        <time>2019-05-22T20:55:47Z</time>
      </trkpt>
      <trkpt lat="45.79501" lon="5.65447">
        <ele>317</ele>
        <time>2019-05-22T20:55:54Z</time>
      </trkpt>
      <trkpt lat="45.79566" lon="5.65405">
        <ele>315</ele>
        <time>2019-05-22T20:56:11Z</time>
      </trkpt>
      <trkpt lat="45.79652" lon="5.65342">
        <ele>314</ele>
        <time>2019-05-22T20:56:33Z</time>
      </trkpt>
      <trkpt lat="45.79674" lon="5.65323">
        <ele>316</ele>
        <time>2019-05-22T20:56:39Z</time>
      </trkpt>
      <trkpt lat="45.79686" lon="5.65327">
        <ele>318</ele>
        <time>2019-05-22T20:56:42Z</time>
      </trkpt>
      <trkpt lat="45.79694" lon="5.65325">
        <ele>319</ele>
        <time>2019-05-22T20:56:44Z</time>
      </trkpt>
      <trkpt lat="45.79714" lon="5.65309">
        <ele>323</ele>
        <time>2019-05-22T20:56:49Z</time>
      </trkpt>
      <trkpt lat="45.79753" lon="5.65266">
        <ele>328</ele>
        <time>2019-05-22T20:57:01Z</time>
      </trkpt>
      <trkpt lat="45.79776" lon="5.6525">
        <ele>330</ele>
        <time>2019-05-22T20:57:07Z</time>
      </trkpt>
      <trkpt lat="45.79785" lon="5.65249">
        <ele>331</ele>
        <time>2019-05-22T20:57:09Z</time>
      </trkpt>
      <trkpt lat="45.79792" lon="5.65252">
        <ele>332</ele>
        <time>2019-05-22T20:57:11Z</time>
      </trkpt>
      <trkpt lat="45.79795" lon="5.65261">
        <ele>333</ele>
        <time>2019-05-22T20:57:12Z</time>
      </trkpt>
      <trkpt lat="45.79793" lon="5.65278">
        <ele>333</ele>
        <time>2019-05-22T20:57:15Z</time>
      </trkpt>
      <trkpt lat="45.7978" lon="5.65322">
        <ele>333</ele>
        <time>2019-05-22T20:57:23Z</time>
      </trkpt>
      <trkpt lat="45.79782" lon="5.65332">
        <ele>334</ele>
        <time>2019-05-22T20:57:24Z</time>
      </trkpt>
      <trkpt lat="45.79802" lon="5.65373">
        <ele>335</ele>
        <time>2019-05-22T20:57:33Z</time>
      </trkpt>
      <trkpt lat="45.79807" lon="5.65379">
        <ele>335</ele>
        <time>2019-05-22T20:57:34Z</time>
      </trkpt>
      <trkpt lat="45.79827" lon="5.65393">
        <ele>337</ele>
        <time>2019-05-22T20:57:39Z</time>
      </trkpt>
      <trkpt lat="45.79833" lon="5.65404">
        <ele>338</ele>
        <time>2019-05-22T20:57:42Z</time>
      </trkpt>
      <trkpt lat="45.79842" lon="5.65409">
        <ele>338</ele>
        <time>2019-05-22T20:57:44Z</time>
      </trkpt>
      <trkpt lat="45.79898" lon="5.65403">
        <ele>344</ele>
        <time>2019-05-22T20:57:57Z</time>
      </trkpt>
      <trkpt lat="45.79948" lon="5.65413">
        <ele>348</ele>
        <time>2019-05-22T20:58:09Z</time>
      </trkpt>
      <trkpt lat="45.79996" lon="5.65438">
        <ele>352</ele>
        <time>2019-05-22T20:58:21Z</time>
      </trkpt>
      <trkpt lat="45.80005" lon="5.65447">
        <ele>352</ele>
        <time>2019-05-22T20:58:23Z</time>
      </trkpt>
      <trkpt lat="45.79996" lon="5.65534">
        <ele>346</ele>
        <time>2019-05-22T20:58:38Z</time>
      </trkpt>
      <trkpt lat="45.80017" lon="5.65578">
        <ele>343</ele>
        <time>2019-05-22T20:58:46Z</time>
      </trkpt>
      <trkpt lat="45.80026" lon="5.65615">
        <ele>340</ele>
        <time>2019-05-22T20:58:53Z</time>
      </trkpt>
      <trkpt lat="45.80047" lon="5.65671">
        <ele>336</ele>
        <time>2019-05-22T20:59:03Z</time>
      </trkpt>
      <trkpt lat="45.80056" lon="5.65736">
        <ele>333</ele>
        <time>2019-05-22T20:59:14Z</time>
      </trkpt>
      <trkpt lat="45.80064" lon="5.65753">
        <ele>333</ele>
        <time>2019-05-22T20:59:17Z</time>
      </trkpt>
      <trkpt lat="45.80072" lon="5.65798">
        <ele>332</ele>
        <time>2019-05-22T20:59:25Z</time>
      </trkpt>
      <trkpt lat="45.80077" lon="5.65809">
        <ele>332</ele>
        <time>2019-05-22T20:59:27Z</time>
      </trkpt>
      <trkpt lat="45.80102" lon="5.65803">
        <ele>335</ele>
        <time>2019-05-22T20:59:33Z</time>
      </trkpt>
      <trkpt lat="45.80108" lon="5.65808">
        <ele>335</ele>
        <time>2019-05-22T20:59:34Z</time>
      </trkpt>
      <trkpt lat="45.80112" lon="5.65841">
        <ele>334</ele>
        <time>2019-05-22T20:59:40Z</time>
      </trkpt>
      <trkpt lat="45.8015" lon="5.6587">
        <ele>336</ele>
        <time>2019-05-22T20:59:50Z</time>
      </trkpt>
      <trkpt lat="45.80175" lon="5.65875">
        <ele>338</ele>
        <time>2019-05-22T20:59:56Z</time>
      </trkpt>
      <trkpt lat="45.80204" lon="5.65869">
        <ele>339</ele>
        <time>2019-05-22T21:00:03Z</time>
      </trkpt>
      <trkpt lat="45.80225" lon="5.65869">
        <ele>339</ele>
        <time>2019-05-22T21:00:07Z</time>
      </trkpt>
      <trkpt lat="45.80252" lon="5.65874">
        <ele>340</ele>
        <time>2019-05-22T21:00:14Z</time>
      </trkpt>
      <trkpt lat="45.80264" lon="5.6585">
        <ele>342</ele>
        <time>2019-05-22T21:00:19Z</time>
      </trkpt>
      <trkpt lat="45.80299" lon="5.65838">
        <ele>343</ele>
        <time>2019-05-22T21:00:27Z</time>
      </trkpt>
      <trkpt lat="45.80363" lon="5.65826">
        <ele>344</ele>
        <time>2019-05-22T21:00:42Z</time>
      </trkpt>
      <trkpt lat="45.80379" lon="5.65821">
        <ele>344</ele>
        <time>2019-05-22T21:00:46Z</time>
      </trkpt>
      <trkpt lat="45.80418" lon="5.65796">
        <ele>346</ele>
        <time>2019-05-22T21:00:56Z</time>
      </trkpt>
      <trkpt lat="45.80459" lon="5.65757">
        <ele>345</ele>
        <time>2019-05-22T21:01:07Z</time>
      </trkpt>
      <trkpt lat="45.80556" lon="5.65679">
        <ele>351</ele>
        <time>2019-05-22T21:01:33Z</time>
      </trkpt>
      <trkpt lat="45.80637" lon="5.65596">
        <ele>353</ele>
        <time>2019-05-22T21:01:57Z</time>
      </trkpt>
      <trkpt lat="45.80673" lon="5.65566">
        <ele>351</ele>
        <time>2019-05-22T21:02:06Z</time>
      </trkpt>
      <trkpt lat="45.80795" lon="5.65432">
        <ele>349</ele>
        <time>2019-05-22T21:02:42Z</time>
      </trkpt>
      <trkpt lat="45.80792" lon="5.65387">
        <ele>350</ele>
        <time>2019-05-22T21:02:50Z</time>
      </trkpt>
      <trkpt lat="45.80784" lon="5.65362">
        <ele>352</ele>
        <time>2019-05-22T21:02:54Z</time>
      </trkpt>
      <trkpt lat="45.80778" lon="5.65309">
        <ele>354</ele>
        <time>2019-05-22T21:03:03Z</time>
      </trkpt>
      <trkpt lat="45.80761" lon="5.6521">
        <ele>356</ele>
        <time>2019-05-22T21:03:19Z</time>
      </trkpt>
      <trkpt lat="45.80754" lon="5.65127">
        <ele>358</ele>
        <time>2019-05-22T21:03:33Z</time>
      </trkpt>
      <trkpt lat="45.80749" lon="5.65094">
        <ele>360</ele>
        <time>2019-05-22T21:03:39Z</time>
      </trkpt>
      <trkpt lat="45.80727" lon="5.64985">
        <ele>360</ele>
        <time>2019-05-22T21:03:57Z</time>
      </trkpt>
      <trkpt lat="45.80744" lon="5.64933">
        <ele>360</ele>
        <time>2019-05-22T21:04:06Z</time>
      </trkpt>
      <trkpt lat="45.80756" lon="5.64916">
        <ele>360</ele>
        <time>2019-05-22T21:04:10Z</time>
      </trkpt>
      <trkpt lat="45.80773" lon="5.64902">
        <ele>360</ele>
        <time>2019-05-22T21:04:15Z</time>
      </trkpt>
      <trkpt lat="45.80796" lon="5.64888">
        <ele>360</ele>
        <time>2019-05-22T21:04:21Z</time>
      </trkpt>
      <trkpt lat="45.80819" lon="5.64852">
        <ele>360</ele>
        <time>2019-05-22T21:04:29Z</time>
      </trkpt>
      <trkpt lat="45.80837" lon="5.64835">
        <ele>359</ele>
        <time>2019-05-22T21:04:34Z</time>
      </trkpt>
      <trkpt lat="45.80848" lon="5.64831">
        <ele>359</ele>
        <time>2019-05-22T21:04:36Z</time>
      </trkpt>
      <trkpt lat="45.80859" lon="5.64831">
        <ele>359</ele>
        <time>2019-05-22T21:04:39Z</time>
      </trkpt>
      <trkpt lat="45.80882" lon="5.64822">
        <ele>358</ele>
        <time>2019-05-22T21:04:44Z</time>
      </trkpt>
      <trkpt lat="45.80891" lon="5.64829">
        <ele>358</ele>
        <time>2019-05-22T21:04:47Z</time>
      </trkpt>
      <trkpt lat="45.80918" lon="5.64833">
        <ele>358</ele>
        <time>2019-05-22T21:04:53Z</time>
      </trkpt>
      <trkpt lat="45.80944" lon="5.64831">
        <ele>357</ele>
        <time>2019-05-22T21:04:59Z</time>
      </trkpt>
      <trkpt lat="45.80987" lon="5.64814">
        <ele>357</ele>
        <time>2019-05-22T21:05:10Z</time>
      </trkpt>
      <trkpt lat="45.80999" lon="5.64805">
        <ele>357</ele>
        <time>2019-05-22T21:05:13Z</time>
      </trkpt>
      <trkpt lat="45.81015" lon="5.64787">
        <ele>358</ele>
        <time>2019-05-22T21:05:18Z</time>
      </trkpt>
      <trkpt lat="45.81046" lon="5.64763">
        <ele>359</ele>
        <time>2019-05-22T21:05:26Z</time>
      </trkpt>
      <trkpt lat="45.81056" lon="5.64763">
        <ele>359</ele>
        <time>2019-05-22T21:05:28Z</time>
      </trkpt>
      <trkpt lat="45.81074" lon="5.64769">
        <ele>360</ele>
        <time>2019-05-22T21:05:32Z</time>
      </trkpt>
      <trkpt lat="45.81088" lon="5.64765">
        <ele>360</ele>
        <time>2019-05-22T21:05:36Z</time>
      </trkpt>
      <trkpt lat="45.81119" lon="5.64737">
        <ele>360</ele>
        <time>2019-05-22T21:05:44Z</time>
      </trkpt>
      <trkpt lat="45.81132" lon="5.64731">
        <ele>360</ele>
        <time>2019-05-22T21:05:48Z</time>
      </trkpt>
      <trkpt lat="45.81154" lon="5.64749">
        <ele>360</ele>
        <time>2019-05-22T21:05:53Z</time>
      </trkpt>
      <trkpt lat="45.81188" lon="5.64763">
        <ele>360</ele>
        <time>2019-05-22T21:06:02Z</time>
      </trkpt>
      <trkpt lat="45.812" lon="5.64757">
        <ele>361</ele>
        <time>2019-05-22T21:06:05Z</time>
      </trkpt>
      <trkpt lat="45.81212" lon="5.64743">
        <ele>361</ele>
        <time>2019-05-22T21:06:08Z</time>
      </trkpt>
      <trkpt lat="45.81221" lon="5.64732">
        <ele>361</ele>
        <time>2019-05-22T21:06:11Z</time>
      </trkpt>
      <trkpt lat="45.81228" lon="5.64711">
        <ele>362</ele>
        <time>2019-05-22T21:06:15Z</time>
      </trkpt>
      <trkpt lat="45.81238" lon="5.64698">
        <ele>362</ele>
        <time>2019-05-22T21:06:18Z</time>
      </trkpt>
      <trkpt lat="45.81248" lon="5.64691">
        <ele>363</ele>
        <time>2019-05-22T21:06:21Z</time>
      </trkpt>
      <trkpt lat="45.81259" lon="5.64688">
        <ele>362</ele>
        <time>2019-05-22T21:06:23Z</time>
      </trkpt>
      <trkpt lat="45.81278" lon="5.64688">
        <ele>362</ele>
        <time>2019-05-22T21:06:28Z</time>
      </trkpt>
      <trkpt lat="45.81295" lon="5.6468">
        <ele>361</ele>
        <time>2019-05-22T21:06:32Z</time>
      </trkpt>
      <trkpt lat="45.81326" lon="5.6469">
        <ele>360</ele>
        <time>2019-05-22T21:06:39Z</time>
      </trkpt>
      <trkpt lat="45.81354" lon="5.64687">
        <ele>357</ele>
        <time>2019-05-22T21:06:46Z</time>
      </trkpt>
      <trkpt lat="45.81366" lon="5.64683">
        <ele>355</ele>
        <time>2019-05-22T21:06:49Z</time>
      </trkpt>
      <trkpt lat="45.81397" lon="5.64649">
        <ele>352</ele>
        <time>2019-05-22T21:06:58Z</time>
      </trkpt>
      <trkpt lat="45.81423" lon="5.64616">
        <ele>349</ele>
        <time>2019-05-22T21:07:06Z</time>
      </trkpt>
      <trkpt lat="45.81434" lon="5.64595">
        <ele>347</ele>
        <time>2019-05-22T21:07:10Z</time>
      </trkpt>
      <trkpt lat="45.81446" lon="5.64551">
        <ele>345</ele>
        <time>2019-05-22T21:07:18Z</time>
      </trkpt>
      <trkpt lat="45.8146" lon="5.64516">
        <ele>342</ele>
        <time>2019-05-22T21:07:24Z</time>
      </trkpt>
      <trkpt lat="45.81466" lon="5.64488">
        <ele>341</ele>
        <time>2019-05-22T21:07:29Z</time>
      </trkpt>
      <trkpt lat="45.81471" lon="5.64445">
        <ele>339</ele>
        <time>2019-05-22T21:07:36Z</time>
      </trkpt>
      <trkpt lat="45.81484" lon="5.6441">
        <ele>336</ele>
        <time>2019-05-22T21:07:43Z</time>
      </trkpt>
      <trkpt lat="45.81486" lon="5.64394">
        <ele>334</ele>
        <time>2019-05-22T21:07:45Z</time>
      </trkpt>
      <trkpt lat="45.81486" lon="5.64372">
        <ele>333</ele>
        <time>2019-05-22T21:07:49Z</time>
      </trkpt>
      <trkpt lat="45.81478" lon="5.64349">
        <ele>334</ele>
        <time>2019-05-22T21:07:53Z</time>
      </trkpt>
      <trkpt lat="45.81477" lon="5.64327">
        <ele>333</ele>
        <time>2019-05-22T21:07:57Z</time>
      </trkpt>
      <trkpt lat="45.81481" lon="5.64307">
        <ele>331</ele>
        <time>2019-05-22T21:08:00Z</time>
      </trkpt>
      <trkpt lat="45.81477" lon="5.64282">
        <ele>331</ele>
        <time>2019-05-22T21:08:04Z</time>
      </trkpt>
      <trkpt lat="45.8147" lon="5.64259">
        <ele>332</ele>
        <time>2019-05-22T21:08:08Z</time>
      </trkpt>
      <trkpt lat="45.81445" lon="5.6422">
        <ele>335</ele>
        <time>2019-05-22T21:08:17Z</time>
      </trkpt>
      <trkpt lat="45.81437" lon="5.64199">
        <ele>335</ele>
        <time>2019-05-22T21:08:21Z</time>
      </trkpt>
      <trkpt lat="45.81423" lon="5.64188">
        <ele>337</ele>
        <time>2019-05-22T21:08:25Z</time>
      </trkpt>
      <trkpt lat="45.81375" lon="5.64174">
        <ele>340</ele>
        <time>2019-05-22T21:08:36Z</time>
      </trkpt>
      <trkpt lat="45.81348" lon="5.64174">
        <ele>343</ele>
        <time>2019-05-22T21:08:42Z</time>
      </trkpt>
      <trkpt lat="45.81333" lon="5.64184">
        <ele>344</ele>
        <time>2019-05-22T21:08:46Z</time>
      </trkpt>
      <trkpt lat="45.81321" lon="5.64188">
        <ele>345</ele>
        <time>2019-05-22T21:08:49Z</time>
      </trkpt>
      <trkpt lat="45.81309" lon="5.64187">
        <ele>345</ele>
        <time>2019-05-22T21:08:52Z</time>
      </trkpt>
      <trkpt lat="45.81277" lon="5.6417">
        <ele>343</ele>
        <time>2019-05-22T21:09:00Z</time>
      </trkpt>
      <trkpt lat="45.81259" lon="5.64163">
        <ele>343</ele>
        <time>2019-05-22T21:09:04Z</time>
      </trkpt>
      <trkpt lat="45.81232" lon="5.64157">
        <ele>343</ele>
        <time>2019-05-22T21:09:11Z</time>
      </trkpt>
      <trkpt lat="45.81225" lon="5.64141">
        <ele>343</ele>
        <time>2019-05-22T21:09:14Z</time>
      </trkpt>
      <trkpt lat="45.81216" lon="5.64137">
        <ele>343</ele>
        <time>2019-05-22T21:09:16Z</time>
      </trkpt>
      <trkpt lat="45.81202" lon="5.64137">
        <ele>344</ele>
        <time>2019-05-22T21:09:19Z</time>
      </trkpt>
      <trkpt lat="45.81188" lon="5.64148">
        <ele>344</ele>
        <time>2019-05-22T21:09:23Z</time>
      </trkpt>
      <trkpt lat="45.81163" lon="5.64154">
        <ele>345</ele>
        <time>2019-05-22T21:09:29Z</time>
      </trkpt>
      <trkpt lat="45.81119" lon="5.64157">
        <ele>344</ele>
        <time>2019-05-22T21:09:39Z</time>
      </trkpt>
      <trkpt lat="45.81067" lon="5.64193">
        <ele>345</ele>
        <time>2019-05-22T21:09:53Z</time>
      </trkpt>
      <trkpt lat="45.81023" lon="5.64234">
        <ele>346</ele>
        <time>2019-05-22T21:10:05Z</time>
      </trkpt>
      <trkpt lat="45.81005" lon="5.6424">
        <ele>345</ele>
        <time>2019-05-22T21:10:09Z</time>
      </trkpt>
      <trkpt lat="45.8099" lon="5.64256">
        <ele>345</ele>
        <time>2019-05-22T21:10:14Z</time>
      </trkpt>
      <trkpt lat="45.80981" lon="5.6426">
        <ele>345</ele>
        <time>2019-05-22T21:10:16Z</time>
      </trkpt>
      <trkpt lat="45.80973" lon="5.64261">
        <ele>344</ele>
        <time>2019-05-22T21:10:18Z</time>
      </trkpt>
      <trkpt lat="45.80948" lon="5.64248">
        <ele>342</ele>
        <time>2019-05-22T21:10:24Z</time>
      </trkpt>
      <trkpt lat="45.80923" lon="5.64245">
        <ele>340</ele>
        <time>2019-05-22T21:10:30Z</time>
      </trkpt>
      <trkpt lat="45.80912" lon="5.64237">
        <ele>339</ele>
        <time>2019-05-22T21:10:33Z</time>
      </trkpt>
      <trkpt lat="45.80902" lon="5.64235">
        <ele>338</ele>
        <time>2019-05-22T21:10:35Z</time>
      </trkpt>
      <trkpt lat="45.80879" lon="5.64248">
        <ele>338</ele>
        <time>2019-05-22T21:10:41Z</time>
      </trkpt>
      <trkpt lat="45.80865" lon="5.64253">
        <ele>337</ele>
        <time>2019-05-22T21:10:44Z</time>
      </trkpt>
      <trkpt lat="45.80843" lon="5.64257">
        <ele>336</ele>
        <time>2019-05-22T21:10:49Z</time>
      </trkpt>
      <trkpt lat="45.80818" lon="5.64265">
        <ele>335</ele>
        <time>2019-05-22T21:10:55Z</time>
      </trkpt>
      <trkpt lat="45.80801" lon="5.64267">
        <ele>334</ele>
        <time>2019-05-22T21:10:59Z</time>
      </trkpt>
      <trkpt lat="45.80783" lon="5.64277">
        <ele>334</ele>
        <time>2019-05-22T21:11:04Z</time>
      </trkpt>
      <trkpt lat="45.80772" lon="5.64273">
        <ele>333</ele>
        <time>2019-05-22T21:11:06Z</time>
      </trkpt>
      <trkpt lat="45.80762" lon="5.64274">
        <ele>333</ele>
        <time>2019-05-22T21:11:09Z</time>
      </trkpt>
      <trkpt lat="45.80748" lon="5.64271">
        <ele>332</ele>
        <time>2019-05-22T21:11:12Z</time>
      </trkpt>
      <trkpt lat="45.80738" lon="5.64275">
        <ele>332</ele>
        <time>2019-05-22T21:11:14Z</time>
      </trkpt>
      <trkpt lat="45.80721" lon="5.64288">
        <ele>332</ele>
        <time>2019-05-22T21:11:19Z</time>
      </trkpt>
      <trkpt lat="45.80663" lon="5.64322">
        <ele>332</ele>
        <time>2019-05-22T21:11:34Z</time>
      </trkpt>
      <trkpt lat="45.80641" lon="5.6432">
        <ele>332</ele>
        <time>2019-05-22T21:11:39Z</time>
      </trkpt>
      <trkpt lat="45.80614" lon="5.64324">
        <ele>332</ele>
        <time>2019-05-22T21:11:45Z</time>
      </trkpt>
      <trkpt lat="45.8059" lon="5.64315">
        <ele>333</ele>
        <time>2019-05-22T21:11:51Z</time>
      </trkpt>
      <trkpt lat="45.80567" lon="5.64313">
        <ele>334</ele>
        <time>2019-05-22T21:11:56Z</time>
      </trkpt>
      <trkpt lat="45.80554" lon="5.64316">
        <ele>333</ele>
        <time>2019-05-22T21:11:59Z</time>
      </trkpt>
      <trkpt lat="45.80538" lon="5.64325">
        <ele>333</ele>
        <time>2019-05-22T21:12:03Z</time>
      </trkpt>
      <trkpt lat="45.80501" lon="5.64338">
        <ele>332</ele>
        <time>2019-05-22T21:12:12Z</time>
      </trkpt>
      <trkpt lat="45.80454" lon="5.64317">
        <ele>332</ele>
        <time>2019-05-22T21:12:24Z</time>
      </trkpt>
      <trkpt lat="45.80436" lon="5.64305">
        <ele>333</ele>
        <time>2019-05-22T21:12:28Z</time>
      </trkpt>
      <trkpt lat="45.80404" lon="5.64281">
        <ele>334</ele>
        <time>2019-05-22T21:12:37Z</time>
      </trkpt>
      <trkpt lat="45.80392" lon="5.64265">
        <ele>336</ele>
        <time>2019-05-22T21:12:41Z</time>
      </trkpt>
      <trkpt lat="45.80372" lon="5.64255">
        <ele>336</ele>
        <time>2019-05-22T21:12:46Z</time>
      </trkpt>
      <trkpt lat="45.80336" lon="5.64243">
        <ele>336</ele>
        <time>2019-05-22T21:12:54Z</time>
      </trkpt>
      <trkpt lat="45.80269" lon="5.64256">
        <ele>339</ele>
        <time>2019-05-22T21:13:10Z</time>
      </trkpt>
      <trkpt lat="45.80216" lon="5.64257">
        <ele>342</ele>
        <time>2019-05-22T21:13:22Z</time>
      </trkpt>
      <trkpt lat="45.80202" lon="5.64268">
        <ele>340</ele>
        <time>2019-05-22T21:13:26Z</time>
      </trkpt>
      <trkpt lat="45.80183" lon="5.64289">
        <ele>337</ele>
        <time>2019-05-22T21:13:32Z</time>
      </trkpt>
      <trkpt lat="45.80162" lon="5.64285">
        <ele>339</ele>
        <time>2019-05-22T21:13:37Z</time>
      </trkpt>
      <trkpt lat="45.80154" lon="5.64261">
        <ele>344</ele>
        <time>2019-05-22T21:13:41Z</time>
      </trkpt>
      <trkpt lat="45.80143" lon="5.64251">
        <ele>346</ele>
        <time>2019-05-22T21:13:44Z</time>
      </trkpt>
      <trkpt lat="45.80127" lon="5.64254">
        <ele>346</ele>
        <time>2019-05-22T21:13:48Z</time>
      </trkpt>
      <trkpt lat="45.80091" lon="5.64265">
        <ele>346</ele>
        <time>2019-05-22T21:13:56Z</time>
      </trkpt>
      <trkpt lat="45.80049" lon="5.64283">
        <ele>345</ele>
        <time>2019-05-22T21:14:07Z</time>
      </trkpt>
      <trkpt lat="45.7995" lon="5.6431">
        <ele>349</ele>
        <time>2019-05-22T21:14:30Z</time>
      </trkpt>
      <trkpt lat="45.79918" lon="5.64317">
        <ele>350</ele>
        <time>2019-05-22T21:14:38Z</time>
      </trkpt>
      <trkpt lat="45.79861" lon="5.64323">
        <ele>354</ele>
        <time>2019-05-22T21:14:51Z</time>
      </trkpt>
      <trkpt lat="45.79826" lon="5.64331">
        <ele>356</ele>
        <time>2019-05-22T21:14:59Z</time>
      </trkpt>
      <trkpt lat="45.79796" lon="5.64346">
        <ele>353</ele>
        <time>2019-05-22T21:15:07Z</time>
      </trkpt>
      <trkpt lat="45.79784" lon="5.6436">
        <ele>351</ele>
        <time>2019-05-22T21:15:10Z</time>
      </trkpt>
      <trkpt lat="45.79744" lon="5.64356">
        <ele>349</ele>
        <time>2019-05-22T21:15:20Z</time>
      </trkpt>
      <trkpt lat="45.7969" lon="5.64342">
        <ele>348</ele>
        <time>2019-05-22T21:15:33Z</time>
      </trkpt>
      <trkpt lat="45.79624" lon="5.64336">
        <ele>347</ele>
        <time>2019-05-22T21:15:48Z</time>
      </trkpt>
      <trkpt lat="45.79609" lon="5.64338">
        <ele>347</ele>
        <time>2019-05-22T21:15:51Z</time>
      </trkpt>
      <trkpt lat="45.79587" lon="5.6435">
        <ele>347</ele>
        <time>2019-05-22T21:15:57Z</time>
      </trkpt>
      <trkpt lat="45.79558" lon="5.64356">
        <ele>346</ele>
        <time>2019-05-22T21:16:04Z</time>
      </trkpt>
      <trkpt lat="45.79544" lon="5.64355">
        <ele>346</ele>
        <time>2019-05-22T21:16:07Z</time>
      </trkpt>
      <trkpt lat="45.79505" lon="5.64345">
        <ele>347</ele>
        <time>2019-05-22T21:16:16Z</time>
      </trkpt>
      <trkpt lat="45.79487" lon="5.64344">
        <ele>347</ele>
        <time>2019-05-22T21:16:21Z</time>
      </trkpt>
      <trkpt lat="45.79475" lon="5.6434">
        <ele>347</ele>
        <time>2019-05-22T21:16:23Z</time>
      </trkpt>
      <trkpt lat="45.79464" lon="5.64332">
        <ele>348</ele>
        <time>2019-05-22T21:16:26Z</time>
      </trkpt>
      <trkpt lat="45.79431" lon="5.64334">
        <ele>347</ele>
        <time>2019-05-22T21:16:34Z</time>
      </trkpt>
      <trkpt lat="45.79425" lon="5.64306">
        <ele>349</ele>
        <time>2019-05-22T21:16:39Z</time>
      </trkpt>
      <trkpt lat="45.79415" lon="5.64291">
        <ele>351</ele>
        <time>2019-05-22T21:16:42Z</time>
      </trkpt>
      <trkpt lat="45.79413" lon="5.64281">
        <ele>351</ele>
        <time>2019-05-22T21:16:44Z</time>
      </trkpt>
      <trkpt lat="45.79415" lon="5.64232">
        <ele>354</ele>
        <time>2019-05-22T21:16:52Z</time>
      </trkpt>
      <trkpt lat="45.79406" lon="5.64203">
        <ele>355</ele>
        <time>2019-05-22T21:16:57Z</time>
      </trkpt>
      <trkpt lat="45.79397" lon="5.6419">
        <ele>356</ele>
        <time>2019-05-22T21:17:00Z</time>
      </trkpt>
      <trkpt lat="45.79356" lon="5.64147">
        <ele>358</ele>
        <time>2019-05-22T21:17:12Z</time>
      </trkpt>
      <trkpt lat="45.79342" lon="5.64129">
        <ele>359</ele>
        <time>2019-05-22T21:17:16Z</time>
      </trkpt>
      <trkpt lat="45.79284" lon="5.64131">
        <ele>359</ele>
        <time>2019-05-22T21:17:30Z</time>
      </trkpt>
      <trkpt lat="45.79268" lon="5.64129">
        <ele>359</ele>
        <time>2019-05-22T21:17:34Z</time>
      </trkpt>
      <trkpt lat="45.79245" lon="5.64133">
        <ele>359</ele>
        <time>2019-05-22T21:17:39Z</time>
      </trkpt>
      <trkpt lat="45.79183" lon="5.64113">
        <ele>357</ele>
        <time>2019-05-22T21:17:54Z</time>
      </trkpt>
      <trkpt lat="45.79136" lon="5.64081">
        <ele>357</ele>
        <time>2019-05-22T21:18:06Z</time>
      </trkpt>
      <trkpt lat="45.791" lon="5.64053">
        <ele>356</ele>
        <time>2019-05-22T21:18:16Z</time>
      </trkpt>
      <trkpt lat="45.79068" lon="5.64018">
        <ele>359</ele>
        <time>2019-05-22T21:18:25Z</time>
      </trkpt>
      <trkpt lat="45.79026" lon="5.63992">
        <ele>362</ele>
        <time>2019-05-22T21:18:36Z</time>
      </trkpt>
      <trkpt lat="45.79017" lon="5.63985">
        <ele>362</ele>
        <time>2019-05-22T21:18:38Z</time>
      </trkpt>
      <trkpt lat="45.79007" lon="5.63972">
        <ele>362</ele>
        <time>2019-05-22T21:18:41Z</time>
      </trkpt>
      <trkpt lat="45.78967" lon="5.63944">
        <ele>360</ele>
        <time>2019-05-22T21:18:52Z</time>
      </trkpt>
      <trkpt lat="45.78959" lon="5.63944">
        <ele>361</ele>
        <time>2019-05-22T21:18:53Z</time>
      </trkpt>
      <trkpt lat="45.78913" lon="5.63962">
        <ele>363</ele>
        <time>2019-05-22T21:19:05Z</time>
      </trkpt>
      <trkpt lat="45.78871" lon="5.63973">
        <ele>363</ele>
        <time>2019-05-22T21:19:15Z</time>
      </trkpt>
      <trkpt lat="45.78836" lon="5.63996">
        <ele>363</ele>
        <time>2019-05-22T21:19:24Z</time>
      </trkpt>
      <trkpt lat="45.7879" lon="5.64032">
        <ele>362</ele>
        <time>2019-05-22T21:19:36Z</time>
      </trkpt>
      <trkpt lat="45.78772" lon="5.64042">
        <ele>362</ele>
        <time>2019-05-22T21:19:40Z</time>
      </trkpt>
      <trkpt lat="45.78763" lon="5.64044">
        <ele>361</ele>
        <time>2019-05-22T21:19:42Z</time>
      </trkpt>
      <trkpt lat="45.7875" lon="5.6404">
        <ele>359</ele>
        <time>2019-05-22T21:19:45Z</time>
      </trkpt>
      <trkpt lat="45.78737" lon="5.64022">
        <ele>358</ele>
        <time>2019-05-22T21:19:50Z</time>
      </trkpt>
      <trkpt lat="45.78733" lon="5.64009">
        <ele>357</ele>
        <time>2019-05-22T21:19:52Z</time>
      </trkpt>
      <trkpt lat="45.78733" lon="5.63965">
        <ele>355</ele>
        <time>2019-05-22T21:19:59Z</time>
      </trkpt>
      <trkpt lat="45.78727" lon="5.63948">
        <ele>354</ele>
        <time>2019-05-22T21:20:02Z</time>
      </trkpt>
      <trkpt lat="45.78716" lon="5.63946">
        <ele>354</ele>
        <time>2019-05-22T21:20:05Z</time>
      </trkpt>
      <trkpt lat="45.78702" lon="5.63947">
        <ele>353</ele>
        <time>2019-05-22T21:20:08Z</time>
      </trkpt>
      <trkpt lat="45.78692" lon="5.63949">
        <ele>353</ele>
        <time>2019-05-22T21:20:11Z</time>
      </trkpt>
      <trkpt lat="45.7868" lon="5.63956">
        <ele>353</ele>
        <time>2019-05-22T21:20:14Z</time>
      </trkpt>
      <trkpt lat="45.78653" lon="5.63976">
        <ele>353</ele>
        <time>2019-05-22T21:20:21Z</time>
      </trkpt>
      <trkpt lat="45.78598" lon="5.64028">
        <ele>356</ele>
        <time>2019-05-22T21:20:36Z</time>
      </trkpt>
      <trkpt lat="45.78535" lon="5.64043">
        <ele>354</ele>
        <time>2019-05-22T21:20:51Z</time>
      </trkpt>
      <trkpt lat="45.78459" lon="5.64071">
        <ele>353</ele>
        <time>2019-05-22T21:21:09Z</time>
      </trkpt>
      <trkpt lat="45.78371" lon="5.64067">
        <ele>347</ele>
        <time>2019-05-22T21:21:30Z</time>
      </trkpt>
      <trkpt lat="45.78346" lon="5.64061">
        <ele>345</ele>
        <time>2019-05-22T21:21:36Z</time>
      </trkpt>
      <trkpt lat="45.78268" lon="5.64049">
        <ele>346</ele>
        <time>2019-05-22T21:21:54Z</time>
      </trkpt>
      <trkpt lat="45.78256" lon="5.64042">
        <ele>347</ele>
        <time>2019-05-22T21:21:57Z</time>
      </trkpt>
      <trkpt lat="45.78248" lon="5.64053">
        <ele>347</ele>
        <time>2019-05-22T21:22:00Z</time>
      </trkpt>
      <trkpt lat="45.78232" lon="5.64085">
        <ele>347</ele>
        <time>2019-05-22T21:22:06Z</time>
      </trkpt>
      <trkpt lat="45.78221" lon="5.64095">
        <ele>348</ele>
        <time>2019-05-22T21:22:09Z</time>
      </trkpt>
      <trkpt lat="45.78184" lon="5.6411">
        <ele>350</ele>
        <time>2019-05-22T21:22:18Z</time>
      </trkpt>
      <trkpt lat="45.78155" lon="5.64112">
        <ele>352</ele>
        <time>2019-05-22T21:22:25Z</time>
      </trkpt>
      <trkpt lat="45.78133" lon="5.64117">
        <ele>353</ele>
        <time>2019-05-22T21:22:30Z</time>
      </trkpt>
      <trkpt lat="45.781" lon="5.64136">
        <ele>354</ele>
        <time>2019-05-22T21:22:38Z</time>
      </trkpt>
      <trkpt lat="45.78078" lon="5.64156">
        <ele>355</ele>
        <time>2019-05-22T21:22:44Z</time>
      </trkpt>
      <trkpt lat="45.78053" lon="5.64192">
        <ele>355</ele>
        <time>2019-05-22T21:22:53Z</time>
      </trkpt>
      <trkpt lat="45.78031" lon="5.64212">
        <ele>355</ele>
        <time>2019-05-22T21:22:59Z</time>
      </trkpt>
      <trkpt lat="45.78004" lon="5.64252">
        <ele>356</ele>
        <time>2019-05-22T21:23:08Z</time>
      </trkpt>
      <trkpt lat="45.7799" lon="5.64264">
        <ele>354</ele>
        <time>2019-05-22T21:23:12Z</time>
      </trkpt>
      <trkpt lat="45.77961" lon="5.64271">
        <ele>353</ele>
        <time>2019-05-22T21:23:19Z</time>
      </trkpt>
      <trkpt lat="45.77946" lon="5.64278">
        <ele>352</ele>
        <time>2019-05-22T21:23:22Z</time>
      </trkpt>
      <trkpt lat="45.7791" lon="5.64312">
        <ele>349</ele>
        <time>2019-05-22T21:23:32Z</time>
      </trkpt>
      <trkpt lat="45.77898" lon="5.64317">
        <ele>349</ele>
        <time>2019-05-22T21:23:35Z</time>
      </trkpt>
      <trkpt lat="45.77881" lon="5.64317">
        <ele>348</ele>
        <time>2019-05-22T21:23:39Z</time>
      </trkpt>
      <trkpt lat="45.77834" lon="5.64345">
        <ele>343</ele>
        <time>2019-05-22T21:23:51Z</time>
      </trkpt>
      <trkpt lat="45.77801" lon="5.64348">
        <ele>345</ele>
        <time>2019-05-22T21:23:59Z</time>
      </trkpt>
      <trkpt lat="45.77772" lon="5.64366">
        <ele>345</ele>
        <time>2019-05-22T21:24:06Z</time>
      </trkpt>
      <trkpt lat="45.77753" lon="5.64374">
        <ele>346</ele>
        <time>2019-05-22T21:24:11Z</time>
      </trkpt>
      <trkpt lat="45.77701" lon="5.6439">
        <ele>348</ele>
        <time>2019-05-22T21:24:23Z</time>
      </trkpt>
      <trkpt lat="45.77629" lon="5.64433">
        <ele>350</ele>
        <time>2019-05-22T21:24:41Z</time>
      </trkpt>
      <trkpt lat="45.77553" lon="5.64468">
        <ele>353</ele>
        <time>2019-05-22T21:25:00Z</time>
      </trkpt>
      <trkpt lat="45.77533" lon="5.64475">
        <ele>353</ele>
        <time>2019-05-22T21:25:05Z</time>
      </trkpt>
      <trkpt lat="45.77497" lon="5.64498">
        <ele>352</ele>
        <time>2019-05-22T21:25:14Z</time>
      </trkpt>
      <trkpt lat="45.77475" lon="5.64508">
        <ele>350</ele>
        <time>2019-05-22T21:25:20Z</time>
      </trkpt>
      <trkpt lat="45.77441" lon="5.64528">
        <ele>346</ele>
        <time>2019-05-22T21:25:28Z</time>
      </trkpt>
      <trkpt lat="45.77406" lon="5.64541">
        <ele>344</ele>
        <time>2019-05-22T21:25:37Z</time>
      </trkpt>
      <trkpt lat="45.7737" lon="5.6456">
        <ele>342</ele>
        <time>2019-05-22T21:25:45Z</time>
      </trkpt>
      <trkpt lat="45.77355" lon="5.64569">
        <ele>341</ele>
        <time>2019-05-22T21:25:49Z</time>
      </trkpt>
      <trkpt lat="45.77298" lon="5.64615">
        <ele>335</ele>
        <time>2019-05-22T21:26:05Z</time>
      </trkpt>
      <trkpt lat="45.77258" lon="5.64625">
        <ele>331</ele>
        <time>2019-05-22T21:26:14Z</time>
      </trkpt>
      <trkpt lat="45.77244" lon="5.64632">
        <ele>329</ele>
        <time>2019-05-22T21:26:18Z</time>
      </trkpt>
      <trkpt lat="45.7722" lon="5.6465">
        <ele>324</ele>
        <time>2019-05-22T21:26:24Z</time>
      </trkpt>
      <trkpt lat="45.77192" lon="5.6466">
        <ele>319</ele>
        <time>2019-05-22T21:26:31Z</time>
      </trkpt>
      <trkpt lat="45.77177" lon="5.64668">
        <ele>315</ele>
        <time>2019-05-22T21:26:34Z</time>
      </trkpt>
      <trkpt lat="45.77161" lon="5.64673">
        <ele>314</ele>
        <time>2019-05-22T21:26:38Z</time>
      </trkpt>
      <trkpt lat="45.77084" lon="5.6468">
        <ele>315</ele>
        <time>2019-05-22T21:26:56Z</time>
      </trkpt>
      <trkpt lat="45.77037" lon="5.64696">
        <ele>316</ele>
        <time>2019-05-22T21:27:07Z</time>
      </trkpt>
      <trkpt lat="45.76997" lon="5.64701">
        <ele>317</ele>
        <time>2019-05-22T21:27:17Z</time>
      </trkpt>
      <trkpt lat="45.76922" lon="5.64719">
        <ele>316</ele>
        <time>2019-05-22T21:27:35Z</time>
      </trkpt>
      <trkpt lat="45.76849" lon="5.64746">
        <ele>307</ele>
        <time>2019-05-22T21:27:52Z</time>
      </trkpt>
      <trkpt lat="45.76836" lon="5.64749">
        <ele>305</ele>
        <time>2019-05-22T21:27:55Z</time>
      </trkpt>
      <trkpt lat="45.76814" lon="5.6475">
        <ele>304</ele>
        <time>2019-05-22T21:28:00Z</time>
      </trkpt>
      <trkpt lat="45.76782" lon="5.64758">
        <ele>303</ele>
        <time>2019-05-22T21:28:08Z</time>
      </trkpt>
      <trkpt lat="45.76752" lon="5.64762">
        <ele>302</ele>
        <time>2019-05-22T21:28:15Z</time>
      </trkpt>
      <trkpt lat="45.76736" lon="5.64756">
        <ele>300</ele>
        <time>2019-05-22T21:28:19Z</time>
      </trkpt>
      <trkpt lat="45.76711" lon="5.64741">
        <ele>298</ele>
        <time>2019-05-22T21:28:25Z</time>
      </trkpt>
      <trkpt lat="45.76701" lon="5.64742">
        <ele>298</ele>
        <time>2019-05-22T21:28:28Z</time>
      </trkpt>
      <trkpt lat="45.76691" lon="5.6475">
        <ele>298</ele>
        <time>2019-05-22T21:28:30Z</time>
      </trkpt>
      <trkpt lat="45.76678" lon="5.64754">
        <ele>299</ele>
        <time>2019-05-22T21:28:33Z</time>
      </trkpt>
      <trkpt lat="45.76665" lon="5.64754">
        <ele>299</ele>
        <time>2019-05-22T21:28:36Z</time>
      </trkpt>
      <trkpt lat="45.76646" lon="5.64758">
        <ele>299</ele>
        <time>2019-05-22T21:28:41Z</time>
      </trkpt>
      <trkpt lat="45.76618" lon="5.64771">
        <ele>300</ele>
        <time>2019-05-22T21:28:48Z</time>
      </trkpt>
      <trkpt lat="45.76587" lon="5.64791">
        <ele>301</ele>
        <time>2019-05-22T21:28:56Z</time>
      </trkpt>
      <trkpt lat="45.76551" lon="5.6481">
        <ele>301</ele>
        <time>2019-05-22T21:29:05Z</time>
      </trkpt>
      <trkpt lat="45.76522" lon="5.64815">
        <ele>298</ele>
        <time>2019-05-22T21:29:11Z</time>
      </trkpt>
      <trkpt lat="45.7649" lon="5.64831">
        <ele>296</ele>
        <time>2019-05-22T21:29:19Z</time>
      </trkpt>
      <trkpt lat="45.76455" lon="5.64857">
        <ele>295</ele>
        <time>2019-05-22T21:29:29Z</time>
      </trkpt>
      <trkpt lat="45.76413" lon="5.64899">
        <ele>294</ele>
        <time>2019-05-22T21:29:41Z</time>
      </trkpt>
      <trkpt lat="45.764" lon="5.64905">
        <ele>293</ele>
        <time>2019-05-22T21:29:44Z</time>
      </trkpt>
      <trkpt lat="45.76348" lon="5.6491">
        <ele>288</ele>
        <time>2019-05-22T21:29:56Z</time>
      </trkpt>
      <trkpt lat="45.7631" lon="5.64905">
        <ele>286</ele>
        <time>2019-05-22T21:30:05Z</time>
      </trkpt>
      <trkpt lat="45.76296" lon="5.64901">
        <ele>285</ele>
        <time>2019-05-22T21:30:08Z</time>
      </trkpt>
      <trkpt lat="45.76266" lon="5.64879">
        <ele>287</ele>
        <time>2019-05-22T21:30:16Z</time>
      </trkpt>
      <trkpt lat="45.76222" lon="5.64908">
        <ele>286</ele>
        <time>2019-05-22T21:30:27Z</time>
      </trkpt>
      <trkpt lat="45.76211" lon="5.64919">
        <ele>285</ele>
        <time>2019-05-22T21:30:30Z</time>
      </trkpt>
      <trkpt lat="45.76203" lon="5.64935">
        <ele>284</ele>
        <time>2019-05-22T21:30:34Z</time>
      </trkpt>
      <trkpt lat="45.76204" lon="5.64986">
        <ele>279</ele>
        <time>2019-05-22T21:30:42Z</time>
      </trkpt>
      <trkpt lat="45.76211" lon="5.65029">
        <ele>276</ele>
        <time>2019-05-22T21:30:49Z</time>
      </trkpt>
      <trkpt lat="45.76209" lon="5.65046">
        <ele>275</ele>
        <time>2019-05-22T21:30:52Z</time>
      </trkpt>
      <trkpt lat="45.76192" lon="5.65086">
        <ele>269</ele>
        <time>2019-05-22T21:31:00Z</time>
      </trkpt>
      <trkpt lat="45.76187" lon="5.6511">
        <ele>267</ele>
        <time>2019-05-22T21:31:04Z</time>
      </trkpt>
      <trkpt lat="45.76185" lon="5.6518">
        <ele>262</ele>
        <time>2019-05-22T21:31:15Z</time>
      </trkpt>
      <trkpt lat="45.7619" lon="5.65194">
        <ele>261</ele>
        <time>2019-05-22T21:31:18Z</time>
      </trkpt>
      <trkpt lat="45.76222" lon="5.65243">
        <ele>259</ele>
        <time>2019-05-22T21:31:29Z</time>
      </trkpt>
      <trkpt lat="45.76299" lon="5.65331">
        <ele>248</ele>
        <time>2019-05-22T21:31:52Z</time>
      </trkpt>
      <trkpt lat="45.76303" lon="5.65345">
        <ele>246</ele>
        <time>2019-05-22T21:31:54Z</time>
      </trkpt>
      <trkpt lat="45.76301" lon="5.65369">
        <ele>244</ele>
        <time>2019-05-22T21:31:58Z</time>
      </trkpt>
      <trkpt lat="45.76293" lon="5.65383">
        <ele>242</ele>
        <time>2019-05-22T21:32:01Z</time>
      </trkpt>
      <trkpt lat="45.76282" lon="5.65394">
        <ele>240</ele>
        <time>2019-05-22T21:32:04Z</time>
      </trkpt>
      <trkpt lat="45.76266" lon="5.65404">
        <ele>238</ele>
        <time>2019-05-22T21:32:08Z</time>
      </trkpt>
      <trkpt lat="45.76122" lon="5.65458">
        <ele>233</ele>
        <time>2019-05-22T21:32:43Z</time>
      </trkpt>
      <trkpt lat="45.76102" lon="5.65475">
        <ele>232</ele>
        <time>2019-05-22T21:32:48Z</time>
      </trkpt>
      <trkpt lat="45.76094" lon="5.65488">
        <ele>231</ele>
        <time>2019-05-22T21:32:51Z</time>
      </trkpt>
      <trkpt lat="45.76084" lon="5.65528">
        <ele>230</ele>
        <time>2019-05-22T21:32:58Z</time>
      </trkpt>
      <trkpt lat="45.76049" lon="5.65753">
        <ele>228</ele>
        <time>2019-05-22T21:33:36Z</time>
      </trkpt>
      <trkpt lat="45.76029" lon="5.65812">
        <ele>228</ele>
        <time>2019-05-22T21:33:46Z</time>
      </trkpt>
      <trkpt lat="45.76006" lon="5.65869">
        <ele>228</ele>
        <time>2019-05-22T21:33:57Z</time>
      </trkpt>
      <trkpt lat="45.75989" lon="5.6594">
        <ele>229</ele>
        <time>2019-05-22T21:34:09Z</time>
      </trkpt>
      <trkpt lat="45.75991" lon="5.66076">
        <ele>231</ele>
        <time>2019-05-22T21:34:31Z</time>
      </trkpt>
      <trkpt lat="45.75996" lon="5.66143">
        <ele>232</ele>
        <time>2019-05-22T21:34:42Z</time>
      </trkpt>
      <trkpt lat="45.75994" lon="5.66153">
        <ele>233</ele>
        <time>2019-05-22T21:34:44Z</time>
      </trkpt>
      <trkpt lat="45.76046" lon="5.66242">
        <ele>234</ele>
        <time>2019-05-22T21:35:03Z</time>
      </trkpt>
      <trkpt lat="45.7609" lon="5.66301">
        <ele>238</ele>
        <time>2019-05-22T21:35:17Z</time>
      </trkpt>
      <trkpt lat="45.76112" lon="5.66316">
        <ele>240</ele>
        <time>2019-05-22T21:35:23Z</time>
      </trkpt>
      <trkpt lat="45.7615" lon="5.66333">
        <ele>243</ele>
        <time>2019-05-22T21:35:32Z</time>
      </trkpt>
      <trkpt lat="45.76155" lon="5.66346">
        <ele>244</ele>
        <time>2019-05-22T21:35:35Z</time>
      </trkpt>
      <trkpt lat="45.76164" lon="5.66393">
        <ele>247</ele>
        <time>2019-05-22T21:35:42Z</time>
      </trkpt>
      <trkpt lat="45.7618" lon="5.66437">
        <ele>251</ele>
        <time>2019-05-22T21:35:51Z</time>
      </trkpt>
      <trkpt lat="45.76187" lon="5.66448">
        <ele>252</ele>
        <time>2019-05-22T21:35:53Z</time>
      </trkpt>
      <trkpt lat="45.76195" lon="5.66458">
        <ele>253</ele>
        <time>2019-05-22T21:35:55Z</time>
      </trkpt>
      <trkpt lat="45.76216" lon="5.66476">
        <ele>254</ele>
        <time>2019-05-22T21:36:01Z</time>
      </trkpt>
      <trkpt lat="45.76241" lon="5.66489">
        <ele>256</ele>
        <time>2019-05-22T21:36:07Z</time>
      </trkpt>
      <trkpt lat="45.76252" lon="5.66487">
        <ele>257</ele>
        <time>2019-05-22T21:36:10Z</time>
      </trkpt>
      <trkpt lat="45.76261" lon="5.66482">
        <ele>257</ele>
        <time>2019-05-22T21:36:12Z</time>
      </trkpt>
      <trkpt lat="45.76289" lon="5.66457">
        <ele>259</ele>
        <time>2019-05-22T21:36:20Z</time>
      </trkpt>
      <trkpt lat="45.76315" lon="5.6645">
        <ele>261</ele>
        <time>2019-05-22T21:36:26Z</time>
      </trkpt>
      <trkpt lat="45.76334" lon="5.66437">
        <ele>262</ele>
        <time>2019-05-22T21:36:31Z</time>
      </trkpt>
      <trkpt lat="45.76355" lon="5.66415">
        <ele>263</ele>
        <time>2019-05-22T21:36:37Z</time>
      </trkpt>
      <trkpt lat="45.76384" lon="5.66399">
        <ele>262</ele>
        <time>2019-05-22T21:36:44Z</time>
      </trkpt>
      <trkpt lat="45.76411" lon="5.66387">
        <ele>262</ele>
        <time>2019-05-22T21:36:51Z</time>
      </trkpt>
      <trkpt lat="45.76445" lon="5.66377">
        <ele>263</ele>
        <time>2019-05-22T21:36:59Z</time>
      </trkpt>
      <trkpt lat="45.76477" lon="5.66375">
        <ele>264</ele>
        <time>2019-05-22T21:37:07Z</time>
      </trkpt>
      <trkpt lat="45.76485" lon="5.66378">
        <ele>265</ele>
        <time>2019-05-22T21:37:08Z</time>
      </trkpt>
      <trkpt lat="45.76497" lon="5.66395">
        <ele>267</ele>
        <time>2019-05-22T21:37:12Z</time>
      </trkpt>
      <trkpt lat="45.76511" lon="5.66407">
        <ele>269</ele>
        <time>2019-05-22T21:37:16Z</time>
      </trkpt>
      <trkpt lat="45.7652" lon="5.66469">
        <ele>270</ele>
        <time>2019-05-22T21:37:27Z</time>
      </trkpt>
      <trkpt lat="45.76521" lon="5.66502">
        <ele>269</ele>
        <time>2019-05-22T21:37:32Z</time>
      </trkpt>
      <trkpt lat="45.76502" lon="5.66581">
        <ele>271</ele>
        <time>2019-05-22T21:37:46Z</time>
      </trkpt>
      <trkpt lat="45.76493" lon="5.66608">
        <ele>272</ele>
        <time>2019-05-22T21:37:50Z</time>
      </trkpt>
      <trkpt lat="45.76485" lon="5.66622">
        <ele>272</ele>
        <time>2019-05-22T21:37:53Z</time>
      </trkpt>
      <trkpt lat="45.76456" lon="5.66656">
        <ele>272</ele>
        <time>2019-05-22T21:38:02Z</time>
      </trkpt>
      <trkpt lat="45.76402" lon="5.66702">
        <ele>273</ele>
        <time>2019-05-22T21:38:17Z</time>
      </trkpt>
      <trkpt lat="45.76392" lon="5.66714">
        <ele>274</ele>
        <time>2019-05-22T21:38:20Z</time>
      </trkpt>
      <trkpt lat="45.7638" lon="5.6673">
        <ele>274</ele>
        <time>2019-05-22T21:38:24Z</time>
      </trkpt>
      <trkpt lat="45.76336" lon="5.66802">
        <ele>278</ele>
        <time>2019-05-22T21:38:39Z</time>
      </trkpt>
      <trkpt lat="45.76329" lon="5.66807">
        <ele>278</ele>
        <time>2019-05-22T21:38:41Z</time>
      </trkpt>
      <trkpt lat="45.76276" lon="5.66823">
        <ele>279</ele>
        <time>2019-05-22T21:38:54Z</time>
      </trkpt>
      <trkpt lat="45.76244" lon="5.66836">
        <ele>279</ele>
        <time>2019-05-22T21:39:01Z</time>
      </trkpt>
      <trkpt lat="45.76183" lon="5.66854">
        <ele>279</ele>
        <time>2019-05-22T21:39:16Z</time>
      </trkpt>
      <trkpt lat="45.76173" lon="5.6686">
        <ele>279</ele>
        <time>2019-05-22T21:39:19Z</time>
      </trkpt>
      <trkpt lat="45.76108" lon="5.66921">
        <ele>277</ele>
        <time>2019-05-22T21:39:37Z</time>
      </trkpt>
      <trkpt lat="45.76061" lon="5.66981">
        <ele>277</ele>
        <time>2019-05-22T21:39:51Z</time>
      </trkpt>
      <trkpt lat="45.7605" lon="5.66992">
        <ele>276</ele>
        <time>2019-05-22T21:39:55Z</time>
      </trkpt>
      <trkpt lat="45.76035" lon="5.67005">
        <ele>276</ele>
        <time>2019-05-22T21:39:59Z</time>
      </trkpt>
      <trkpt lat="45.76007" lon="5.67018">
        <ele>274</ele>
        <time>2019-05-22T21:40:05Z</time>
      </trkpt>
      <trkpt lat="45.75985" lon="5.67031">
        <ele>274</ele>
        <time>2019-05-22T21:40:11Z</time>
      </trkpt>
      <trkpt lat="45.75977" lon="5.67039">
        <ele>274</ele>
        <time>2019-05-22T21:40:13Z</time>
      </trkpt>
      <trkpt lat="45.75944" lon="5.6708">
        <ele>275</ele>
        <time>2019-05-22T21:40:24Z</time>
      </trkpt>
      <trkpt lat="45.75913" lon="5.67133">
        <ele>278</ele>
        <time>2019-05-22T21:40:35Z</time>
      </trkpt>
      <trkpt lat="45.75863" lon="5.67208">
        <ele>281</ele>
        <time>2019-05-22T21:40:52Z</time>
      </trkpt>
      <trkpt lat="45.75847" lon="5.67248">
        <ele>282</ele>
        <time>2019-05-22T21:40:59Z</time>
      </trkpt>
      <trkpt lat="45.75832" lon="5.67296">
        <ele>282</ele>
        <time>2019-05-22T21:41:08Z</time>
      </trkpt>
      <trkpt lat="45.75823" lon="5.67305">
        <ele>282</ele>
        <time>2019-05-22T21:41:10Z</time>
      </trkpt>
      <trkpt lat="45.75815" lon="5.67307">
        <ele>281</ele>
        <time>2019-05-22T21:41:12Z</time>
      </trkpt>
      <trkpt lat="45.75789" lon="5.67307">
        <ele>280</ele>
        <time>2019-05-22T21:41:18Z</time>
      </trkpt>
      <trkpt lat="45.75749" lon="5.67302">
        <ele>278</ele>
        <time>2019-05-22T21:41:28Z</time>
      </trkpt>
      <trkpt lat="45.75737" lon="5.67303">
        <ele>278</ele>
        <time>2019-05-22T21:41:30Z</time>
      </trkpt>
      <trkpt lat="45.75642" lon="5.67444">
        <ele>283</ele>
        <time>2019-05-22T21:42:02Z</time>
      </trkpt>
      <trkpt lat="45.75613" lon="5.67497">
        <ele>284</ele>
        <time>2019-05-22T21:42:13Z</time>
      </trkpt>
      <trkpt lat="45.75591" lon="5.67547">
        <ele>283</ele>
        <time>2019-05-22T21:42:23Z</time>
      </trkpt>
      <trkpt lat="45.75572" lon="5.67614">
        <ele>283</ele>
        <time>2019-05-22T21:42:35Z</time>
      </trkpt>
      <trkpt lat="45.75546" lon="5.67687">
        <ele>283</ele>
        <time>2019-05-22T21:42:48Z</time>
      </trkpt>
      <trkpt lat="45.75535" lon="5.67726">
        <ele>283</ele>
        <time>2019-05-22T21:42:55Z</time>
      </trkpt>
      <trkpt lat="45.75534" lon="5.67758">
        <ele>284</ele>
        <time>2019-05-22T21:43:00Z</time>
      </trkpt>
      <trkpt lat="45.75538" lon="5.67831">
        <ele>285</ele>
        <time>2019-05-22T21:43:12Z</time>
      </trkpt>
      <trkpt lat="45.7553" lon="5.67911">
        <ele>287</ele>
        <time>2019-05-22T21:43:25Z</time>
      </trkpt>
      <trkpt lat="45.75521" lon="5.67943">
        <ele>288</ele>
        <time>2019-05-22T21:43:31Z</time>
      </trkpt>
      <trkpt lat="45.75489" lon="5.68026">
        <ele>291</ele>
        <time>2019-05-22T21:43:46Z</time>
      </trkpt>
      <trkpt lat="45.75479" lon="5.68039">
        <ele>291</ele>
        <time>2019-05-22T21:43:50Z</time>
      </trkpt>
      <trkpt lat="45.75466" lon="5.6805">
        <ele>291</ele>
        <time>2019-05-22T21:43:53Z</time>
      </trkpt>
      <trkpt lat="45.75437" lon="5.68058">
        <ele>290</ele>
        <time>2019-05-22T21:44:00Z</time>
      </trkpt>
      <trkpt lat="45.75404" lon="5.68055">
        <ele>290</ele>
        <time>2019-05-22T21:44:08Z</time>
      </trkpt>
      <trkpt lat="45.75159" lon="5.68054">
        <ele>290</ele>
        <time>2019-05-22T21:45:05Z</time>
      </trkpt>
      <trkpt lat="45.75144" lon="5.68132">
        <ele>293</ele>
        <time>2019-05-22T21:45:18Z</time>
      </trkpt>
      <trkpt lat="45.75143" lon="5.68147">
        <ele>293</ele>
        <time>2019-05-22T21:45:21Z</time>
      </trkpt>
      <trkpt lat="45.75146" lon="5.68156">
        <ele>294</ele>
        <time>2019-05-22T21:45:22Z</time>
      </trkpt>
      <trkpt lat="45.75192" lon="5.68194">
        <ele>294</ele>
        <time>2019-05-22T21:45:35Z</time>
      </trkpt>
      <trkpt lat="45.75227" lon="5.68211">
        <ele>295</ele>
        <time>2019-05-22T21:45:43Z</time>
      </trkpt>
      <trkpt lat="45.75244" lon="5.68223">
        <ele>296</ele>
        <time>2019-05-22T21:45:48Z</time>
      </trkpt>
      <trkpt lat="45.75155" lon="5.68328">
        <ele>293</ele>
        <time>2019-05-22T21:46:15Z</time>
      </trkpt>
      <trkpt lat="45.75103" lon="5.68395">
        <ele>291</ele>
        <time>2019-05-22T21:46:31Z</time>
      </trkpt>
      <trkpt lat="45.75286" lon="5.68591">
        <ele>292</ele>
        <time>2019-05-22T21:47:24Z</time>
      </trkpt>
      <trkpt lat="45.75295" lon="5.686">
        <ele>292</ele>
        <time>2019-05-22T21:47:27Z</time>
      </trkpt>
      <trkpt lat="45.75317" lon="5.68613">
        <ele>292</ele>
        <time>2019-05-22T21:47:32Z</time>
      </trkpt>
      <trkpt lat="45.75323" lon="5.68621">
        <ele>292</ele>
        <time>2019-05-22T21:47:34Z</time>
      </trkpt>
      <trkpt lat="45.7532" lon="5.6863">
        <ele>292</ele>
        <time>2019-05-22T21:47:36Z</time>
      </trkpt>
      <trkpt lat="45.75323" lon="5.68638">
        <ele>291</ele>
        <time>2019-05-22T21:47:37Z</time>
      </trkpt>
      <trkpt lat="45.75356" lon="5.68668">
        <ele>292</ele>
        <time>2019-05-22T21:47:47Z</time>
      </trkpt>
      <trkpt lat="45.7538" lon="5.68684">
        <ele>292</ele>
        <time>2019-05-22T21:47:53Z</time>
      </trkpt>
      <trkpt lat="45.75429" lon="5.68711">
        <ele>293</ele>
        <time>2019-05-22T21:48:05Z</time>
      </trkpt>
      <trkpt lat="45.75459" lon="5.6872">
        <ele>292</ele>
        <time>2019-05-22T21:48:12Z</time>
      </trkpt>
      <trkpt lat="45.75474" lon="5.68729">
        <ele>291</ele>
        <time>2019-05-22T21:48:16Z</time>
      </trkpt>
      <trkpt lat="45.75505" lon="5.68758">
        <ele>290</ele>
        <time>2019-05-22T21:48:25Z</time>
      </trkpt>
      <trkpt lat="45.75555" lon="5.6879">
        <ele>288</ele>
        <time>2019-05-22T21:48:37Z</time>
      </trkpt>
      <trkpt lat="45.75628" lon="5.68847">
        <ele>284</ele>
        <time>2019-05-22T21:48:57Z</time>
      </trkpt>
      <trkpt lat="45.75665" lon="5.6879">
        <ele>283</ele>
        <time>2019-05-22T21:49:09Z</time>
      </trkpt>
      <trkpt lat="45.75683" lon="5.68757">
        <ele>282</ele>
        <time>2019-05-22T21:49:16Z</time>
      </trkpt>
      <trkpt lat="45.75705" lon="5.68768">
        <ele>281</ele>
        <time>2019-05-22T21:49:22Z</time>
      </trkpt>
      <trkpt lat="45.75769" lon="5.6881">
        <ele>279</ele>
        <time>2019-05-22T21:49:38Z</time>
      </trkpt>
      <trkpt lat="45.75789" lon="5.68828">
        <ele>279</ele>
        <time>2019-05-22T21:49:44Z</time>
      </trkpt>
      <trkpt lat="45.75774" lon="5.68864">
        <ele>280</ele>
        <time>2019-05-22T21:49:50Z</time>
      </trkpt>
      <trkpt lat="45.7578" lon="5.68876">
        <ele>280</ele>
        <time>2019-05-22T21:49:53Z</time>
      </trkpt>
      <trkpt lat="45.75778" lon="5.68901">
        <ele>280</ele>
        <time>2019-05-22T21:49:57Z</time>
      </trkpt>
      <trkpt lat="45.75798" lon="5.68907">
        <ele>280</ele>
        <time>2019-05-22T21:50:02Z</time>
      </trkpt>
      <trkpt lat="45.75813" lon="5.68908">
        <ele>280</ele>
        <time>2019-05-22T21:50:05Z</time>
      </trkpt>
      <trkpt lat="45.75808" lon="5.68928">
        <ele>280</ele>
        <time>2019-05-22T21:50:09Z</time>
      </trkpt>
    </trkseg>
  </trk>
</gpx>